Observation data for Happy on 12/13/2019      Previous  Date       Current Mesonet Observations  Soil Data  Daily Summary Page  Observations in Plain Language
KHA2 130600Z 24000KT 00/M04 A2999 RMK A01 T00031041  RH  072%=      5-min Rain = 0
KHA2 130601Z 24001KT 00/M04 A2998 RMK A01 T00021041  RH  073%=      5-min Rain = 0
KHA2 130602Z 24001KT 00/M04 A2998 RMK A01 T00021040  RH  073%=      5-min Rain = 0
KHA2 130603Z 24001KT 00/M04 A2998 RMK A01 T00021040  RH  073%=      5-min Rain = 0
KHA2 130604Z 24001KT 00/M04 A2998 RMK A01 T00021040  RH  073%=      5-min Rain = 0
KHA2 130605Z 23002KT 00/M04 A2998 RMK A01 T00021039  RH  074%=      5-min Rain = 0
KHA2 130606Z 23002KT 00/M04 A2998 RMK A01 T00021040  RH  074%=      5-min Rain = 0
KHA2 130607Z 23002KT 00/M04 A2998 RMK A01 T00021040  RH  074%=      5-min Rain = 0
KHA2 130608Z 24002KT 00/M04 A2998 RMK A01 T00031038  RH  074%=      5-min Rain = 0
KHA2 130609Z 24003KT 01/M04 A2998 RMK A01 T00051037  RH  074%=      5-min Rain = 0
KHA2 130610Z 24003KT 01/M04 A2998 RMK A01 T00071036  RH  073%=      5-min Rain = 0
KHA2 130611Z 24003KT 01/M04 A2998 RMK A01 T00081037  RH  072%=      5-min Rain = 0
KHA2 130612Z 24003KT 01/M04 A2998 RMK A01 T00081037  RH  072%=      5-min Rain = 0
KHA2 130613Z 24003KT 01/M04 A2998 RMK A01 T00071039  RH  071%=      5-min Rain = 0
KHA2 130614Z 24003KT 01/M04 A2998 RMK A01 T00061040  RH  071%=      5-min Rain = 0
KHA2 130615Z 24003KT 01/M04 A2998 RMK A01 T00051040  RH  072%=      5-min Rain = 0
KHA2 130616Z 24003KT 01/M04 A2998 RMK A01 T00051040  RH  072%=      5-min Rain = 0
KHA2 130617Z 24003KT 01/M04 A2998 RMK A01 T00051040  RH  072%=      5-min Rain = 0
KHA2 130618Z 25003KT 01/M04 A2998 RMK A01 T00051039  RH  072%=      5-min Rain = 0
KHA2 130619Z 25003KT 01/M04 A2998 RMK A01 T00071038  RH  072%=      5-min Rain = 0
KHA2 130620Z 25003KT 01/M04 A2998 RMK A01 T00091037  RH  072%=      5-min Rain = 0
KHA2 130621Z 25003KT 01/M04 A2998 RMK A01 T00091037  RH  071%=      5-min Rain = 0
KHA2 130622Z 25003KT 01/M04 A2998 RMK A01 T00101036  RH  071%=      5-min Rain = 0
KHA2 130623Z 25003KT 01/M04 A2998 RMK A01 T00121036  RH  070%=      5-min Rain = 0
KHA2 130624Z 25003KT 01/M04 A2998 RMK A01 T00121037  RH  070%=      5-min Rain = 0
KHA2 130625Z 25003KT 01/M04 A2998 RMK A01 T00101038  RH  070%=      5-min Rain = 0
KHA2 130626Z 26003KT 01/M04 A2998 RMK A01 T00091038  RH  071%=      5-min Rain = 0
KHA2 130627Z 26003KT 01/M04 A2998 RMK A01 T00081038  RH  071%=      5-min Rain = 0
KHA2 130628Z 26003KT 01/M04 A2998 RMK A01 T00071038  RH  072%=      5-min Rain = 0
KHA2 130629Z 27003KT 01/M04 A2998 RMK A01 T00071038  RH  072%=      5-min Rain = 0
KHA2 130630Z 26003KT 01/M04 A2998 RMK A01 T00061039  RH  072%=      5-min Rain = 0
KHA2 130631Z 26003KT 00/M04 A2998 RMK A01 T00041040  RH  072%=      5-min Rain = 0
KHA2 130632Z 26003KT 00/M04 A2998 RMK A01 T00031039  RH  073%=      5-min Rain = 0
KHA2 130633Z 27003KT 00/M04 A2998 RMK A01 T00011039  RH  074%=      5-min Rain = 0
KHA2 130634Z 27003KT 00/M04 A2998 RMK A01 T00011039  RH  075%=      5-min Rain = 0
KHA2 130635Z 27003KT 00/04 A2998 RMK A01 T00000-39  RH  075%=      5-min Rain = 0
KHA2 130636Z 27003KT M00/M04 A2998 RMK A01 T10011039  RH  075%=      5-min Rain = 0
KHA2 130637Z 26003KT M00/M04 A2998 RMK A01 T10021039  RH  076%=      5-min Rain = 0
KHA2 130638Z 26002KT M00/M04 A2998 RMK A01 T10021039  RH  076%=      5-min Rain = 0
KHA2 130639Z 26002KT M00/M04 A2998 RMK A01 T10021038  RH  076%=      5-min Rain = 0
KHA2 130640Z 26002KT M00/M04 A2998 RMK A01 T10021038  RH  076%=      5-min Rain = 0
KHA2 130641Z 26003KT 00/04 A2998 RMK A01 T00000-37  RH  076%=      5-min Rain = 0
KHA2 130642Z 26003KT 00/M04 A2998 RMK A01 T00011038  RH  075%=      5-min Rain = 0
KHA2 130643Z 26003KT 00/M04 A2998 RMK A01 T00011038  RH  075%=      5-min Rain = 0
KHA2 130644Z 26003KT 00/04 A2998 RMK A01 T00000-39  RH  075%=      5-min Rain = 0
KHA2 130645Z 26003KT M00/M04 A2998 RMK A01 T10011040  RH  075%=      5-min Rain = 0
KHA2 130646Z 26003KT M00/M04 A2998 RMK A01 T10031041  RH  076%=      5-min Rain = 0
KHA2 130647Z 26003KT M00/M04 A2998 RMK A01 T10041041  RH  077%=      5-min Rain = 0
KHA2 130648Z 26003KT M01/M04 A2998 RMK A01 T10051040  RH  077%=      5-min Rain = 0
KHA2 130649Z 27003KT M01/M04 A2998 RMK A01 T10051040  RH  077%=      5-min Rain = 0
KHA2 130650Z 27003KT M01/M04 A2998 RMK A01 T10061041  RH  077%=      5-min Rain = 0
KHA2 130651Z 27003KT M01/M04 A2998 RMK A01 T10061040  RH  078%=      5-min Rain = 0
KHA2 130652Z 28003KT M01/M04 A2998 RMK A01 T10071041  RH  078%=      5-min Rain = 0
KHA2 130653Z 28004KT M01/M04 A2998 RMK A01 T10071040  RH  078%=      5-min Rain = 0
KHA2 130654Z 28004KT M01/M04 A2998 RMK A01 T10051039  RH  078%=      5-min Rain = 0
KHA2 130655Z 28003KT M01/M04 A2998 RMK A01 T10051040  RH  077%=      5-min Rain = 0
KHA2 130656Z 28004KT M01/M04 A2998 RMK A01 T10051041  RH  076%=      5-min Rain = 0
KHA2 130657Z 28004KT M01/M04 A2998 RMK A01 T10061042  RH  076%=      5-min Rain = 0
KHA2 130658Z 28004KT M01/M04 A2998 RMK A01 T10061042  RH  077%=      5-min Rain = 0
KHA2 130659Z 28005KT M01/M04 A2998 RMK A01 T10061042  RH  077%=      5-min Rain = 0
KHA2 130700Z 28005KT M01/M04 A2998 RMK A01 T10071042  RH  077%=      5-min Rain = 0
KHA2 130701Z 28005KT M01/M04 A2998 RMK A01 T10071041  RH  078%=      5-min Rain = 0
KHA2 130702Z 28005KT M01/M04 A2998 RMK A01 T10071041  RH  078%=      5-min Rain = 0
KHA2 130703Z 28005KT M01/M04 A2998 RMK A01 T10071041  RH  078%=      5-min Rain = 0
KHA2 130704Z 27004KT M01/M04 A2998 RMK A01 T10071042  RH  077%=      5-min Rain = 0
KHA2 130705Z 28004KT M01/M04 A2998 RMK A01 T10071042  RH  077%=      5-min Rain = 0
KHA2 130706Z 28004KT M01/M04 A2998 RMK A01 T10071042  RH  077%=      5-min Rain = 0
KHA2 130707Z 28004KT M01/M04 A2998 RMK A01 T10071042  RH  077%=      5-min Rain = 0
KHA2 130708Z 28003KT M01/M04 A2997 RMK A01 T10051040  RH  077%=      5-min Rain = 0
KHA2 130709Z 27002KT M00/M04 A2997 RMK A01 T10041041  RH  076%=      5-min Rain = 0
KHA2 130710Z 27003KT M00/M04 A2997 RMK A01 T10041041  RH  076%=      5-min Rain = 0
KHA2 130711Z 27002KT M00/M04 A2997 RMK A01 T10041042  RH  076%=      5-min Rain = 0
KHA2 130712Z 27002KT M00/M04 A2997 RMK A01 T10041042  RH  075%=      5-min Rain = 0
KHA2 130713Z 27003KT M00/M04 A2997 RMK A01 T10041042  RH  075%=      5-min Rain = 0
KHA2 130714Z 27003KT M00/M04 A2997 RMK A01 T10031042  RH  075%=      5-min Rain = 0
KHA2 130715Z 27003KT 00/04 A2997 RMK A01 T00-00-40  RH  075%=      5-min Rain = 0
KHA2 130716Z 27003KT 00/04 A2997 RMK A01 T00-00-42  RH  074%=      5-min Rain = 0
KHA2 130717Z 26003KT M00/M04 A2997 RMK A01 T10031044  RH  074%=      5-min Rain = 0
KHA2 130718Z 27003KT M01/M04 A2997 RMK A01 T10061044  RH  075%=      5-min Rain = 0
KHA2 130719Z 28004KT M01/M04 A2997 RMK A01 T10061042  RH  077%=      5-min Rain = 0
KHA2 130720Z 28004KT M01/M04 A2997 RMK A01 T10051040  RH  077%=      5-min Rain = 0
KHA2 130721Z 28004KT M00/M04 A2997 RMK A01 T10031038  RH  077%=      5-min Rain = 0
KHA2 130722Z 27003KT M00/M04 A2996 RMK A01 T10011037  RH  077%=      5-min Rain = 0
KHA2 130723Z 27003KT M00/M04 A2996 RMK A01 T10011039  RH  076%=      5-min Rain = 0
KHA2 130724Z 26003KT 00/04 A2996 RMK A01 T00-00-38  RH  076%=      5-min Rain = 0
KHA2 130725Z 27003KT 00/M04 A2996 RMK A01 T00021037  RH  075%=      5-min Rain = 0
KHA2 130726Z 27003KT 00/M04 A2996 RMK A01 T00041037  RH  074%=      5-min Rain = 0
KHA2 130727Z 27003KT 01/M04 A2996 RMK A01 T00051038  RH  073%=      5-min Rain = 0
KHA2 130728Z 28003KT 01/M04 A2996 RMK A01 T00051038  RH  073%=      5-min Rain = 0
KHA2 130729Z 28003KT 01/M04 A2996 RMK A01 T00051038  RH  073%=      5-min Rain = 0
KHA2 130730Z 27003KT 01/M04 A2996 RMK A01 T00051038  RH  073%=      5-min Rain = 0
KHA2 130731Z 27004KT 01/M04 A2996 RMK A01 T00051038  RH  073%=      5-min Rain = 0
KHA2 130732Z 26004KT 01/M04 A2996 RMK A01 T00061038  RH  072%=      5-min Rain = 0
KHA2 130733Z 26004KT 01/M04 A2996 RMK A01 T00071039  RH  072%=      5-min Rain = 0
KHA2 130734Z 26004KT 01/M04 A2996 RMK A01 T00061040  RH  072%=      5-min Rain = 0
KHA2 130735Z 27004KT 00/M04 A2996 RMK A01 T00041041  RH  072%=      5-min Rain = 0
KHA2 130736Z 27004KT 00/M04 A2996 RMK A01 T00031040  RH  073%=      5-min Rain = 0
KHA2 130737Z 27004KT 00/M04 A2996 RMK A01 T00021040  RH  073%=      5-min Rain = 0
KHA2 130738Z 27004KT 00/M04 A2996 RMK A01 T00021040  RH  073%=      5-min Rain = 0
KHA2 130739Z 27005KT 00/M04 A2996 RMK A01 T00021040  RH  074%=      5-min Rain = 0
KHA2 130740Z 27005KT 01/M04 A2996 RMK A01 T00051037  RH  074%=      5-min Rain = 0
KHA2 130741Z 27005KT 01/M04 A2996 RMK A01 T00081037  RH  072%=      5-min Rain = 0
KHA2 130742Z 28005KT 01/M04 A2996 RMK A01 T00081038  RH  071%=      5-min Rain = 0
KHA2 130743Z 28005KT 01/M04 A2996 RMK A01 T00081039  RH  071%=      5-min Rain = 0
KHA2 130744Z 28005KT 01/M04 A2996 RMK A01 T00071039  RH  072%=      5-min Rain = 0
KHA2 130745Z 28005KT 01/M04 A2996 RMK A01 T00071038  RH  072%=      5-min Rain = 0
KHA2 130746Z 28005KT 01/M04 A2996 RMK A01 T00081038  RH  072%=      5-min Rain = 0
KHA2 130747Z 29006KT 01/M04 A2996 RMK A01 T00081038  RH  071%=      5-min Rain = 0
KHA2 130748Z 28006KT 01/M04 A2996 RMK A01 T00071038  RH  072%=      5-min Rain = 0
KHA2 130749Z 29005KT 01/M04 A2996 RMK A01 T00051039  RH  072%=      5-min Rain = 0
KHA2 130750Z 28005KT 01/M04 A2995 RMK A01 T00051039  RH  073%=      5-min Rain = 0
KHA2 130751Z 28005KT 00/M04 A2995 RMK A01 T00041038  RH  073%=      5-min Rain = 0
KHA2 130752Z 28006KT 00/M04 A2995 RMK A01 T00041038  RH  073%=      5-min Rain = 0
KHA2 130753Z 28006KT 00/M04 A2995 RMK A01 T00031039  RH  073%=      5-min Rain = 0
KHA2 130754Z 28006KT 00/M04 A2995 RMK A01 T00041037  RH  074%=      5-min Rain = 0
KHA2 130755Z 28006KT 00/M04 A2995 RMK A01 T00041037  RH  074%=      5-min Rain = 0
KHA2 130756Z 28006KT 01/M04 A2995 RMK A01 T00061036  RH  074%=      5-min Rain = 0
KHA2 130757Z 28006KT 01/M04 A2995 RMK A01 T00071035  RH  073%=      5-min Rain = 0
KHA2 130758Z 28006KT 01/M04 A2995 RMK A01 T00081035  RH  073%=      5-min Rain = 0
KHA2 130759Z 28006KT 01/M04 A2995 RMK A01 T00101035  RH  072%=      5-min Rain = 0
KHA2 130800Z 28005KT 01/M04 A2995 RMK A01 T00111035  RH  072%=      5-min Rain = 0
KHA2 130801Z 28005KT 01/M04 A2995 RMK A01 T00101035  RH  072%=      5-min Rain = 0
KHA2 130802Z 29005KT 01/M04 A2995 RMK A01 T00101036  RH  072%=      5-min Rain = 0
KHA2 130803Z 28005KT 01/M04 A2995 RMK A01 T00091036  RH  072%=      5-min Rain = 0
KHA2 130804Z 29005KT 01/M04 A2995 RMK A01 T00101035  RH  072%=      5-min Rain = 0
KHA2 130805Z 29005KT 01/M04 A2995 RMK A01 T00121035  RH  071%=      5-min Rain = 0
KHA2 130806Z 29004KT 01/M04 A2995 RMK A01 T00121035  RH  071%=      5-min Rain = 0
KHA2 130807Z 29004KT 01/M04 A2995 RMK A01 T00121036  RH  070%=      5-min Rain = 0
KHA2 130808Z 29004KT 01/M04 A2995 RMK A01 T00111037  RH  071%=      5-min Rain = 0
KHA2 130809Z 29004KT 01/M04 A2995 RMK A01 T00091038  RH  071%=      5-min Rain = 0
KHA2 130810Z 30003KT 01/M04 A2995 RMK A01 T00071038  RH  072%=      5-min Rain = 0
KHA2 130811Z 30003KT 01/M04 A2995 RMK A01 T00061039  RH  072%=      5-min Rain = 0
KHA2 130812Z 29003KT 00/M04 A2995 RMK A01 T00041040  RH  072%=      5-min Rain = 0
KHA2 130813Z 29003KT 00/M04 A2995 RMK A01 T00021041  RH  073%=      5-min Rain = 0
KHA2 130814Z 29003KT M00/M04 A2995 RMK A01 T10011042  RH  074%=      5-min Rain = 0
KHA2 130815Z 29003KT M00/M04 A2995 RMK A01 T10031042  RH  075%=      5-min Rain = 0
KHA2 130816Z 28003KT M00/M04 A2995 RMK A01 T10041042  RH  076%=      5-min Rain = 0
KHA2 130817Z 28004KT M00/M04 A2995 RMK A01 T10041041  RH  076%=      5-min Rain = 0
KHA2 130818Z 28004KT M01/M04 A2995 RMK A01 T10051041  RH  076%=      5-min Rain = 0
KHA2 130819Z 29005KT M01/M04 A2995 RMK A01 T10051041  RH  077%=      5-min Rain = 0
KHA2 130820Z 29005KT M01/M04 A2995 RMK A01 T10051040  RH  077%=      5-min Rain = 0
KHA2 130821Z 29004KT M00/M04 A2995 RMK A01 T10041040  RH  077%=      5-min Rain = 0
KHA2 130822Z 29004KT M01/M04 A2995 RMK A01 T10051041  RH  077%=      5-min Rain = 0
KHA2 130823Z 29004KT M01/M04 A2995 RMK A01 T10051040  RH  077%=      5-min Rain = 0
KHA2 130824Z 29004KT M01/M04 A2995 RMK A01 T10051040  RH  077%=      5-min Rain = 0
KHA2 130825Z 29003KT M00/M04 A2995 RMK A01 T10041039  RH  077%=      5-min Rain = 0
KHA2 130826Z 30004KT M00/M04 A2995 RMK A01 T10031040  RH  076%=      5-min Rain = 0
KHA2 130827Z 29004KT M00/M04 A2995 RMK A01 T10041040  RH  076%=      5-min Rain = 0
KHA2 130828Z 29004KT M01/M04 A2995 RMK A01 T10051041  RH  077%=      5-min Rain = 0
KHA2 130829Z 30004KT M01/M04 A2995 RMK A01 T10051040  RH  077%=      5-min Rain = 0
KHA2 130830Z 30004KT M01/M04 A2995 RMK A01 T10051040  RH  077%=      5-min Rain = 0
KHA2 130831Z 30005KT M01/M04 A2995 RMK A01 T10061041  RH  077%=      5-min Rain = 0
KHA2 130832Z 30006KT M01/M04 A2995 RMK A01 T10061041  RH  077%=      5-min Rain = 0
KHA2 130833Z 30006KT M01/M04 A2995 RMK A01 T10061041  RH  077%=      5-min Rain = 0
KHA2 130834Z 30005KT M01/M04 A2995 RMK A01 T10071041  RH  078%=      5-min Rain = 0
KHA2 130835Z 30005KT M01/M04 A2995 RMK A01 T10081041  RH  078%=      5-min Rain = 0
KHA2 130836Z 29005KT M01/M04 A2995 RMK A01 T10081042  RH  078%=      5-min Rain = 0
KHA2 130837Z 29005KT M01/M04 A2995 RMK A01 T10091042  RH  078%=      5-min Rain = 0
KHA2 130838Z 29005KT M01/M04 A2995 RMK A01 T10091042  RH  078%=      5-min Rain = 0
KHA2 130839Z 28005KT M01/M04 A2995 RMK A01 T10101042  RH  079%=      5-min Rain = 0
KHA2 130840Z 29004KT M01/M04 A2995 RMK A01 T10101042  RH  079%=      5-min Rain = 0
KHA2 130841Z 30004KT M01/M04 A2995 RMK A01 T10101042  RH  079%=      5-min Rain = 0
KHA2 130842Z 31004KT M01/M04 A2995 RMK A01 T10101042  RH  079%=      5-min Rain = 0
KHA2 130843Z 30006KT M01/M04 A2995 RMK A01 T10101042  RH  079%=      5-min Rain = 0
KHA2 130844Z 29007KT M01/M04 A2995 RMK A01 T10091042  RH  079%=      5-min Rain = 0
KHA2 130845Z 29006KT M01/M04 A2995 RMK A01 T10091042  RH  078%=      5-min Rain = 0
KHA2 130846Z 29005KT M01/M04 A2996 RMK A01 T10091042  RH  078%=      5-min Rain = 0
KHA2 130847Z 30005KT M01/M04 A2996 RMK A01 T10081041  RH  078%=      5-min Rain = 0
KHA2 130848Z 31006KT M01/M04 A2996 RMK A01 T10091042  RH  078%=      5-min Rain = 0
KHA2 130849Z 30006KT M01/M04 A2995 RMK A01 T10101043  RH  078%=      5-min Rain = 0
KHA2 130850Z 29007KT M01/M04 A2995 RMK A01 T10101042  RH  079%=      5-min Rain = 0
KHA2 130851Z 29007KT M01/M04 A2995 RMK A01 T10091041  RH  079%=      5-min Rain = 0
KHA2 130852Z 29007KT M01/M04 A2995 RMK A01 T10081041  RH  079%=      5-min Rain = 0
KHA2 130853Z 29006KT M01/M04 A2995 RMK A01 T10091041  RH  079%=      5-min Rain = 0
KHA2 130854Z 29006KT M01/M04 A2995 RMK A01 T10091041  RH  079%=      5-min Rain = 0
KHA2 130855Z 29005KT M01/M04 A2995 RMK A01 T10101041  RH  079%=      5-min Rain = 0
KHA2 130856Z 29005KT M01/M04 A2995 RMK A01 T10091040  RH  079%=      5-min Rain = 0
KHA2 130857Z 29006KT M01/M04 A2995 RMK A01 T10051037  RH  079%=      5-min Rain = 0
KHA2 130858Z 29006KT M00/M04 A2995 RMK A01 T10031037  RH  078%=      5-min Rain = 0
KHA2 130859Z 29006KT M00/M04 A2995 RMK A01 T10011037  RH  077%=      5-min Rain = 0
KHA2 130900Z 29005KT 00/M04 A2994 RMK A01 T00011036  RH  076%=      5-min Rain = 0
KHA2 130901Z 28005KT 00/M04 A2994 RMK A01 T00021037  RH  075%=      5-min Rain = 0
KHA2 130902Z 29005KT 00/M04 A2994 RMK A01 T00031037  RH  075%=      5-min Rain = 0
KHA2 130903Z 29005KT 00/M04 A2994 RMK A01 T00021037  RH  075%=      5-min Rain = 0
KHA2 130904Z 28005KT 00/M04 A2994 RMK A01 T00021037  RH  075%=      5-min Rain = 0
KHA2 130905Z 28005KT 00/M04 A2994 RMK A01 T00021038  RH  075%=      5-min Rain = 0
KHA2 130906Z 28005KT 00/M04 A2994 RMK A01 T00021038  RH  075%=      5-min Rain = 0
KHA2 130907Z 28005KT 00/M04 A2994 RMK A01 T00011038  RH  075%=      5-min Rain = 0
KHA2 130908Z 28005KT M00/M04 A2994 RMK A01 T10011039  RH  075%=      5-min Rain = 0
KHA2 130909Z 29006KT M00/M04 A2994 RMK A01 T10011039  RH  076%=      5-min Rain = 0
KHA2 130910Z 29005KT M00/M04 A2994 RMK A01 T10021038  RH  076%=      5-min Rain = 0
KHA2 130911Z 30005KT 00/04 A2994 RMK A01 T00000-37  RH  076%=      5-min Rain = 0
KHA2 130912Z 30006KT 00/M04 A2994 RMK A01 T00021037  RH  075%=      5-min Rain = 0
KHA2 130913Z 30007KT 00/M04 A2995 RMK A01 T00021037  RH  075%=      5-min Rain = 0
KHA2 130914Z 30008KT 00/M04 A2995 RMK A01 T00011038  RH  075%=      5-min Rain = 0
KHA2 130915Z 30009KT 00/04 A2995 RMK A01 T00000-38  RH  075%=      5-min Rain = 0
KHA2 130916Z 29008KT 00/04 A2995 RMK A01 T00000-38  RH  075%=      5-min Rain = 0
KHA2 130917Z 29008KT M00/M04 A2995 RMK A01 T10011038  RH  076%=      5-min Rain = 0
KHA2 130918Z 29009KT M00/M04 A2995 RMK A01 T10011038  RH  076%=      5-min Rain = 0
KHA2 130919Z 29009KT 00/04 A2995 RMK A01 T00000-36  RH  076%=      5-min Rain = 0
KHA2 130920Z 29009KT 00/M04 A2995 RMK A01 T00031035  RH  076%=      5-min Rain = 0
KHA2 130921Z 30010KT 00/M04 A2995 RMK A01 T00041035  RH  075%=      5-min Rain = 0
KHA2 130922Z 30009KT 00/M04 A2995 RMK A01 T00041036  RH  074%=      5-min Rain = 0
KHA2 130923Z 30009KT 00/M04 A2995 RMK A01 T00031038  RH  074%=      5-min Rain = 0
KHA2 130924Z 29009KT 00/M04 A2995 RMK A01 T00011039  RH  074%=      5-min Rain = 0
KHA2 130925Z 29009KT M00/M04 A2995 RMK A01 T10011040  RH  075%=      5-min Rain = 0
KHA2 130926Z 29009KT M00/M04 A2995 RMK A01 T10031040  RH  076%=      5-min Rain = 0
KHA2 130927Z 29009KT M00/M04 A2995 RMK A01 T10031039  RH  077%=      5-min Rain = 0
KHA2 130928Z 29009KT M00/M04 A2995 RMK A01 T10021037  RH  077%=      5-min Rain = 0
KHA2 130929Z 30009KT M00/M04 A2995 RMK A01 T10011037  RH  076%=      5-min Rain = 0
KHA2 130930Z 29009KT M00/M04 A2995 RMK A01 T10011038  RH  076%=      5-min Rain = 0
KHA2 130931Z 30008KT M00/M04 A2995 RMK A01 T10021039  RH  076%=      5-min Rain = 0
KHA2 130932Z 29007KT M00/M04 A2995 RMK A01 T10031039  RH  077%=      5-min Rain = 0
KHA2 130933Z 30007KT M00/M04 A2995 RMK A01 T10041039  RH  077%=      5-min Rain = 0
KHA2 130934Z 30007KT M01/M04 A2995 RMK A01 T10051039  RH  078%=      5-min Rain = 0
KHA2 130935Z 30007KT M01/M04 A2995 RMK A01 T10061039  RH  078%=      5-min Rain = 0
KHA2 130936Z 30008KT M01/M04 A2995 RMK A01 T10071039  RH  079%=      5-min Rain = 0
KHA2 130937Z 30007KT M01/M04 A2995 RMK A01 T10071039  RH  079%=      5-min Rain = 0
KHA2 130938Z 30007KT M01/M04 A2995 RMK A01 T10071039  RH  079%=      5-min Rain = 0
KHA2 130939Z 30007KT M01/M04 A2995 RMK A01 T10071039  RH  079%=      5-min Rain = 0
KHA2 130940Z 31007KT M01/M04 A2995 RMK A01 T10081040  RH  079%=      5-min Rain = 0
KHA2 130941Z 31007KT M01/M04 A2995 RMK A01 T10091041  RH  079%=      5-min Rain = 0
KHA2 130942Z 31007KT M01/M04 A2995 RMK A01 T10091040  RH  080%=      5-min Rain = 0
KHA2 130943Z 31008KT M01/M04 A2995 RMK A01 T10091040  RH  080%=      5-min Rain = 0
KHA2 130944Z 30007KT M01/M04 A2995 RMK A01 T10101040  RH  080%=      5-min Rain = 0
KHA2 130945Z 30007KT M01/M04 A2995 RMK A01 T10101040  RH  080%=      5-min Rain = 0
KHA2 130946Z 30007KT M01/M04 A2994 RMK A01 T10101040  RH  080%=      5-min Rain = 0
KHA2 130947Z 30007KT M01/M04 A2994 RMK A01 T10111040  RH  080%=      5-min Rain = 0
KHA2 130948Z 30007KT M01/M04 A2994 RMK A01 T10111041  RH  080%=      5-min Rain = 0
KHA2 130949Z 29007KT M01/M04 A2994 RMK A01 T10111040  RH  081%=      5-min Rain = 0
KHA2 130950Z 29007KT M01/M04 A2994 RMK A01 T10121041  RH  081%=      5-min Rain = 0
KHA2 130951Z 29007KT M01/M04 A2994 RMK A01 T10121040  RH  081%=      5-min Rain = 0
KHA2 130952Z 29007KT M01/M04 A2994 RMK A01 T10111040  RH  081%=      5-min Rain = 0
KHA2 130953Z 29007KT M01/M04 A2994 RMK A01 T10111039  RH  081%=      5-min Rain = 0
KHA2 130954Z 29007KT M01/M04 A2994 RMK A01 T10091038  RH  081%=      5-min Rain = 0
KHA2 130955Z 29006KT M01/M04 A2994 RMK A01 T10081037  RH  081%=      5-min Rain = 0
KHA2 130956Z 29006KT M01/M04 A2994 RMK A01 T10071038  RH  080%=      5-min Rain = 0
KHA2 130957Z 29005KT M01/M04 A2994 RMK A01 T10061037  RH  080%=      5-min Rain = 0
KHA2 130958Z 28004KT M01/M04 A2994 RMK A01 T10051036  RH  079%=      5-min Rain = 0
KHA2 130959Z 28006KT M00/M03 A2994 RMK A01 T10031034  RH  079%=      5-min Rain = 0
KHA2 131000Z 28006KT 00/03 A2994 RMK A01 T00000-34  RH  078%=      5-min Rain = 0
KHA2 131001Z 28006KT 00/M03 A2994 RMK A01 T00011034  RH  077%=      5-min Rain = 0
KHA2 131002Z 28006KT 00/M03 A2994 RMK A01 T00031034  RH  076%=      5-min Rain = 0
KHA2 131003Z 28007KT 00/M04 A2994 RMK A01 T00021035  RH  076%=      5-min Rain = 0
KHA2 131004Z 28007KT 00/M03 A2994 RMK A01 T00031034  RH  076%=      5-min Rain = 0
KHA2 131005Z 28007KT 00/M03 A2995 RMK A01 T00041034  RH  076%=      5-min Rain = 0
KHA2 131006Z 28007KT 01/M03 A2995 RMK A01 T00051034  RH  075%=      5-min Rain = 0
KHA2 131007Z 28007KT 01/M03 A2995 RMK A01 T00051034  RH  075%=      5-min Rain = 0
KHA2 131008Z 28007KT 01/M03 A2995 RMK A01 T00071033  RH  075%=      5-min Rain = 0
KHA2 131009Z 29006KT 01/M03 A2995 RMK A01 T00081033  RH  074%=      5-min Rain = 0
KHA2 131010Z 29006KT 01/M03 A2995 RMK A01 T00081033  RH  074%=      5-min Rain = 0
KHA2 131011Z 29005KT 01/M03 A2995 RMK A01 T00081033  RH  074%=      5-min Rain = 0
KHA2 131012Z 29005KT 01/M03 A2995 RMK A01 T00081034  RH  074%=      5-min Rain = 0
KHA2 131013Z 30005KT 01/M04 A2995 RMK A01 T00061035  RH  074%=      5-min Rain = 0
KHA2 131014Z 30006KT 00/M04 A2995 RMK A01 T00041036  RH  075%=      5-min Rain = 0
KHA2 131015Z 30007KT 00/M04 A2995 RMK A01 T00021037  RH  076%=      5-min Rain = 0
KHA2 131016Z 30007KT 00/04 A2995 RMK A01 T00-00-37  RH  076%=      5-min Rain = 0
KHA2 131017Z 30007KT M00/M04 A2995 RMK A01 T10011037  RH  077%=      5-min Rain = 0
KHA2 131018Z 29007KT M00/M04 A2995 RMK A01 T10031038  RH  077%=      5-min Rain = 0
KHA2 131019Z 29008KT M00/M04 A2995 RMK A01 T10031038  RH  077%=      5-min Rain = 0
KHA2 131020Z 29007KT M00/M04 A2995 RMK A01 T10031038  RH  078%=      5-min Rain = 0
KHA2 131021Z 29008KT M00/M04 A2995 RMK A01 T10041038  RH  078%=      5-min Rain = 0
KHA2 131022Z 29007KT M00/M04 A2995 RMK A01 T10031038  RH  078%=      5-min Rain = 0
KHA2 131023Z 29007KT M00/M04 A2994 RMK A01 T10041038  RH  078%=      5-min Rain = 0
KHA2 131024Z 29006KT M00/M04 A2994 RMK A01 T10031038  RH  078%=      5-min Rain = 0
KHA2 131025Z 29006KT M00/M04 A2994 RMK A01 T10031037  RH  078%=      5-min Rain = 0
KHA2 131026Z 29006KT M00/M04 A2994 RMK A01 T10031037  RH  078%=      5-min Rain = 0
KHA2 131027Z 29006KT M00/M04 A2994 RMK A01 T10021037  RH  078%=      5-min Rain = 0
KHA2 131028Z 28006KT M00/M04 A2994 RMK A01 T10011036  RH  077%=      5-min Rain = 0
KHA2 131029Z 29005KT 00/04 A2994 RMK A01 T00-00-36  RH  077%=      5-min Rain = 0
KHA2 131030Z 29005KT 00/M04 A2994 RMK A01 T00011035  RH  077%=      5-min Rain = 0
KHA2 131031Z 28005KT 00/M04 A2994 RMK A01 T00011036  RH  076%=      5-min Rain = 0
KHA2 131032Z 28005KT 00/M04 A2994 RMK A01 T00021035  RH  076%=      5-min Rain = 0
KHA2 131033Z 28005KT 00/M04 A2994 RMK A01 T00021036  RH  076%=      5-min Rain = 0
KHA2 131034Z 28006KT 00/M04 A2994 RMK A01 T00021036  RH  076%=      5-min Rain = 0
KHA2 131035Z 28006KT 00/M04 A2994 RMK A01 T00031035  RH  076%=      5-min Rain = 0
KHA2 131036Z 29006KT 00/M04 A2994 RMK A01 T00031035  RH  076%=      5-min Rain = 0
KHA2 131037Z 29005KT 00/M04 A2994 RMK A01 T00031035  RH  075%=      5-min Rain = 0
KHA2 131038Z 28005KT 00/M04 A2994 RMK A01 T00041035  RH  075%=      5-min Rain = 0
KHA2 131039Z 28006KT 01/M04 A2994 RMK A01 T00051035  RH  075%=      5-min Rain = 0
KHA2 131040Z 28007KT 01/M04 A2994 RMK A01 T00061035  RH  074%=      5-min Rain = 0
KHA2 131041Z 28007KT 01/M04 A2993 RMK A01 T00051035  RH  074%=      5-min Rain = 0
KHA2 131042Z 28007KT 01/M04 A2993 RMK A01 T00051035  RH  075%=      5-min Rain = 0
KHA2 131043Z 28007KT 01/M04 A2993 RMK A01 T00051035  RH  075%=      5-min Rain = 0
KHA2 131044Z 28007KT 00/M04 A2993 RMK A01 T00041035  RH  075%=      5-min Rain = 0
KHA2 131045Z 28006KT 00/M04 A2993 RMK A01 T00041035  RH  075%=      5-min Rain = 0
KHA2 131046Z 29006KT 00/M04 A2993 RMK A01 T00041035  RH  075%=      5-min Rain = 0
KHA2 131047Z 29007KT 00/M04 A2993 RMK A01 T00041035  RH  075%=      5-min Rain = 0
KHA2 131048Z 29006KT 00/M04 A2993 RMK A01 T00041035  RH  075%=      5-min Rain = 0
KHA2 131049Z 28007KT 00/M04 A2993 RMK A01 T00031036  RH  075%=      5-min Rain = 0
KHA2 131050Z 28007KT 00/M04 A2993 RMK A01 T00041035  RH  075%=      5-min Rain = 0
KHA2 131051Z 29007KT 01/M04 A2993 RMK A01 T00051035  RH  075%=      5-min Rain = 0
KHA2 131052Z 29007KT 01/M04 A2993 RMK A01 T00061035  RH  074%=      5-min Rain = 0
KHA2 131053Z 30007KT 01/M04 A2993 RMK A01 T00071035  RH  074%=      5-min Rain = 0
KHA2 131054Z 29007KT 01/M04 A2993 RMK A01 T00071035  RH  073%=      5-min Rain = 0
KHA2 131055Z 29007KT 01/M04 A2993 RMK A01 T00071035  RH  073%=      5-min Rain = 0
KHA2 131056Z 29007KT 01/M03 A2993 RMK A01 T00091034  RH  073%=      5-min Rain = 0
KHA2 131057Z 28007KT 01/M03 A2993 RMK A01 T00111034  RH  072%=      5-min Rain = 0
KHA2 131058Z 28007KT 01/M03 A2993 RMK A01 T00121034  RH  071%=      5-min Rain = 0
KHA2 131059Z 28007KT 02/M03 A2993 RMK A01 T00171032  RH  070%=      5-min Rain = 0
KHA2 131100Z 28007KT 02/M03 A2993 RMK A01 T00221032  RH  067%=      5-min Rain = 0
KHA2 131101Z 28007KT 02/M03 A2993 RMK A01 T00241032  RH  066%=      5-min Rain = 0
KHA2 131102Z 28007KT 03/M03 A2993 RMK A01 T00251033  RH  065%=      5-min Rain = 0
KHA2 131103Z 28008KT 03/M03 A2993 RMK A01 T00271033  RH  065%=      5-min Rain = 0
KHA2 131104Z 29007KT 03/M03 A2993 RMK A01 T00281033  RH  064%=      5-min Rain = 0
KHA2 131105Z 28007KT 03/M03 A2993 RMK A01 T00281034  RH  064%=      5-min Rain = 0
KHA2 131106Z 28007KT 03/M03 A2993 RMK A01 T00281034  RH  064%=      5-min Rain = 0
KHA2 131107Z 28008KT 03/M03 A2993 RMK A01 T00281034  RH  063%=      5-min Rain = 0
KHA2 131108Z 27008KT 03/M04 A2993 RMK A01 T00271035  RH  063%=      5-min Rain = 0
KHA2 131109Z 27007KT 02/M04 A2993 RMK A01 T00241038  RH  064%=      5-min Rain = 0
KHA2 131110Z 26007KT 02/M04 A2993 RMK A01 T00161043  RH  065%=      5-min Rain = 0
KHA2 131111Z 27008KT 01/M05 A2993 RMK A01 T00081045  RH  068%=      5-min Rain = 0
KHA2 131112Z 27008KT 01/M04 A2993 RMK A01 T00061042  RH  070%=      5-min Rain = 0
KHA2 131113Z 27008KT 01/M04 A2993 RMK A01 T00051040  RH  072%=      5-min Rain = 0
KHA2 131114Z 27009KT 00/M04 A2993 RMK A01 T00021041  RH  073%=      5-min Rain = 0
KHA2 131115Z 27008KT 00/04 A2993 RMK A01 T00-00-42  RH  074%=      5-min Rain = 0
KHA2 131116Z 27008KT M00/M04 A2993 RMK A01 T10021042  RH  074%=      5-min Rain = 0
KHA2 131117Z 27008KT M00/M04 A2993 RMK A01 T10031041  RH  075%=      5-min Rain = 0
KHA2 131118Z 27008KT M00/M04 A2992 RMK A01 T10041041  RH  076%=      5-min Rain = 0
KHA2 131119Z 27007KT M01/M04 A2993 RMK A01 T10051042  RH  076%=      5-min Rain = 0
KHA2 131120Z 27008KT M01/M04 A2993 RMK A01 T10051041  RH  077%=      5-min Rain = 0
KHA2 131121Z 28008KT M01/M04 A2993 RMK A01 T10061041  RH  077%=      5-min Rain = 0
KHA2 131122Z 28009KT M00/M04 A2993 RMK A01 T10041039  RH  077%=      5-min Rain = 0
KHA2 131123Z 28009KT M00/M04 A2993 RMK A01 T10021039  RH  076%=      5-min Rain = 0
KHA2 131124Z 28008KT M00/M04 A2993 RMK A01 T10011039  RH  075%=      5-min Rain = 0
KHA2 131125Z 28008KT 00/M04 A2992 RMK A01 T00011038  RH  075%=      5-min Rain = 0
KHA2 131126Z 29008KT 00/M04 A2992 RMK A01 T00041038  RH  074%=      5-min Rain = 0
KHA2 131127Z 28009KT 01/M04 A2992 RMK A01 T00061038  RH  073%=      5-min Rain = 0
KHA2 131128Z 28009KT 01/M04 A2992 RMK A01 T00101036  RH  072%=      5-min Rain = 0
KHA2 131129Z 28010KT 01/M04 A2992 RMK A01 T00131036  RH  070%=      5-min Rain = 0
KHA2 131130Z 29009KT 02/M04 A2992 RMK A01 T00151036  RH  068%=      5-min Rain = 0
KHA2 131131Z 29010KT 02/M04 A2992 RMK A01 T00161037  RH  068%=      5-min Rain = 0
KHA2 131132Z 28010KT 02/M04 A2992 RMK A01 T00191037  RH  067%=      5-min Rain = 0
KHA2 131133Z 29010KT 02/M04 A2992 RMK A01 T00211036  RH  066%=      5-min Rain = 0
KHA2 131134Z 29010KT 02/M04 A2992 RMK A01 T00241036  RH  064%=      5-min Rain = 0
KHA2 131135Z 29010KT 03/M04 A2991 RMK A01 T00251037  RH  064%=      5-min Rain = 0
KHA2 131136Z 29012KT 03/M04 A2991 RMK A01 T00271036  RH  063%=      5-min Rain = 0
KHA2 131137Z 29012KT 03/M04 A2991 RMK A01 T00331035  RH  061%=      5-min Rain = 0
KHA2 131138Z 29013KT 04/M04 A2991 RMK A01 T00351036  RH  059%=      5-min Rain = 0
KHA2 131139Z 29012KT 04/M04 A2991 RMK A01 T00371036  RH  059%=      5-min Rain = 0
KHA2 131140Z 29015KT 04/M04 A2991 RMK A01 T00371036  RH  059%=      5-min Rain = 0
KHA2 131141Z 29016KT 04/M04 A2991 RMK A01 T00391037  RH  058%=      5-min Rain = 0
KHA2 131142Z 29016KT 04/M04 A2991 RMK A01 T00411037  RH  057%=      5-min Rain = 0
KHA2 131143Z 29015KT 04/M04 A2991 RMK A01 T00401037  RH  057%=      5-min Rain = 0
KHA2 131144Z 30016KT 04/M04 A2991 RMK A01 T00391038  RH  057%=      5-min Rain = 0
KHA2 131145Z 29015KT 04/M04 A2991 RMK A01 T00381038  RH  057%=      5-min Rain = 0
KHA2 131146Z 29015KT 04/M04 A2992 RMK A01 T00381038  RH  058%=      5-min Rain = 0
KHA2 131147Z 30013KT 04/M04 A2992 RMK A01 T00381038  RH  058%=      5-min Rain = 0
KHA2 131148Z 30012KT 04/M04 A2992 RMK A01 T00361039  RH  058%=      5-min Rain = 0
KHA2 131149Z 30012KT 03/M04 A2992 RMK A01 T00321039  RH  059%=      5-min Rain = 0
KHA2 131150Z 29015KT 03/M04 A2991 RMK A01 T00301039  RH  060%=      5-min Rain = 0
KHA2 131151Z 29014KT 03/M04 A2992 RMK A01 T00311038  RH  061%=      5-min Rain = 0
KHA2 131152Z 29013KT 03/M04 A2992 RMK A01 T00311037  RH  061%=      5-min Rain = 0
KHA2 131153Z 29012KT 03/M04 A2992 RMK A01 T00301037  RH  061%=      5-min Rain = 0
KHA2 131154Z 29011KT 03/M04 A2992 RMK A01 T00301037  RH  062%=      5-min Rain = 0
KHA2 131155Z 29012KT 03/M04 A2992 RMK A01 T00301036  RH  062%=      5-min Rain = 0
KHA2 131156Z 30013KT 03/M04 A2992 RMK A01 T00311036  RH  062%=      5-min Rain = 0
KHA2 131157Z 29014KT 03/M04 A2992 RMK A01 T00321036  RH  061%=      5-min Rain = 0
KHA2 131158Z 29014KT 03/M04 A2992 RMK A01 T00321035  RH  061%=      5-min Rain = 0
KHA2 131159Z 30015KT 03/M04 A2992 RMK A01 T00321036  RH  061%=      5-min Rain = 0
KHA2 131200Z 30013KT 03/M04 A2992 RMK A01 T00321036  RH  061%=      5-min Rain = 0
KHA2 131201Z 30012KT 03/M04 A2992 RMK A01 T00311036  RH  062%=      5-min Rain = 0
KHA2 131202Z 30012KT 03/M04 A2992 RMK A01 T00291036  RH  062%=      5-min Rain = 0
KHA2 131203Z 30011KT 03/M04 A2992 RMK A01 T00281036  RH  063%=      5-min Rain = 0
KHA2 131204Z 29012KT 03/M04 A2992 RMK A01 T00261035  RH  064%=      5-min Rain = 0
KHA2 131205Z 30013KT 02/M04 A2992 RMK A01 T00241035  RH  065%=      5-min Rain = 0
KHA2 131206Z 30013KT 02/M04 A2992 RMK A01 T00241035  RH  065%=      5-min Rain = 0
KHA2 131207Z 29012KT 02/M04 A2992 RMK A01 T00241035  RH  065%=      5-min Rain = 0
KHA2 131208Z 30012KT 02/M03 A2992 RMK A01 T00241034  RH  065%=      5-min Rain = 0
KHA2 131209Z 30011KT 02/M03 A2992 RMK A01 T00241034  RH  066%=      5-min Rain = 0
KHA2 131210Z 30012KT 02/M03 A2991 RMK A01 T00231034  RH  066%=      5-min Rain = 0
KHA2 131211Z 30012KT 02/M03 A2992 RMK A01 T00231034  RH  066%=      5-min Rain = 0
KHA2 131212Z 30013KT 02/M03 A2992 RMK A01 T00241034  RH  066%=      5-min Rain = 0
KHA2 131213Z 30012KT 02/M03 A2992 RMK A01 T00241033  RH  066%=      5-min Rain = 0
KHA2 131214Z 30012KT 03/M03 A2992 RMK A01 T00251033  RH  065%=      5-min Rain = 0
KHA2 131215Z 30012KT 03/M03 A2992 RMK A01 T00261033  RH  065%=      5-min Rain = 0
KHA2 131216Z 30011KT 03/M03 A2992 RMK A01 T00271032  RH  065%=      5-min Rain = 0
KHA2 131217Z 30012KT 03/M03 A2992 RMK A01 T00281032  RH  065%=      5-min Rain = 0
KHA2 131218Z 30013KT 03/M03 A2991 RMK A01 T00291031  RH  064%=      5-min Rain = 0
KHA2 131219Z 30013KT 03/M03 A2991 RMK A01 T00331031  RH  063%=      5-min Rain = 0
KHA2 131220Z 29015KT 04/M03 A2991 RMK A01 T00351031  RH  062%=      5-min Rain = 0
KHA2 131221Z 29016KT 04/M03 A2991 RMK A01 T00401031  RH  060%=      5-min Rain = 0
KHA2 131222Z 29017KT 05/M03 A2991 RMK A01 T00451031  RH  058%=      5-min Rain = 0
KHA2 131223Z 29018G23KT 05/M03 A2991 RMK A01 T00471032  RH  057%=      5-min Rain = 0
KHA2 131224Z 29018KT 05/M03 A2991 RMK A01 T00481032  RH  056%=      5-min Rain = 0
KHA2 131225Z 29015KT 05/M03 A2991 RMK A01 T00491032  RH  056%=      5-min Rain = 0
KHA2 131226Z 29016KT 05/M03 A2991 RMK A01 T00481033  RH  056%=      5-min Rain = 0
KHA2 131227Z 29016KT 05/M03 A2991 RMK A01 T00491033  RH  056%=      5-min Rain = 0
KHA2 131228Z 29016KT 05/M03 A2991 RMK A01 T00491033  RH  055%=      5-min Rain = 0
KHA2 131229Z 29016KT 05/M03 A2991 RMK A01 T00501033  RH  055%=      5-min Rain = 0
KHA2 131230Z 29015KT 05/M03 A2991 RMK A01 T00501033  RH  055%=      5-min Rain = 0
KHA2 131231Z 30015G20KT 05/M03 A2991 RMK A01 T00501033  RH  055%=      5-min Rain = 0
KHA2 131232Z 30015KT 05/M03 A2991 RMK A01 T00491033  RH  055%=      5-min Rain = 0
KHA2 131233Z 30013KT 05/M03 A2991 RMK A01 T00481033  RH  056%=      5-min Rain = 0
KHA2 131234Z 30014G19KT 05/M03 A2991 RMK A01 T00461033  RH  057%=      5-min Rain = 0
KHA2 131235Z 30013KT 05/M03 A2991 RMK A01 T00451033  RH  057%=      5-min Rain = 0
KHA2 131236Z 30015G20KT 04/M03 A2991 RMK A01 T00441033  RH  058%=      5-min Rain = 0
KHA2 131237Z 30015KT 04/M03 A2991 RMK A01 T00441032  RH  058%=      5-min Rain = 0
KHA2 131238Z 30014KT 05/M03 A2991 RMK A01 T00451032  RH  057%=      5-min Rain = 0
KHA2 131239Z 30014G20KT 04/M03 A2991 RMK A01 T00441032  RH  057%=      5-min Rain = 0
KHA2 131240Z 30016KT 04/M03 A2991 RMK A01 T00441033  RH  057%=      5-min Rain = 0
KHA2 131241Z 30015KT 05/M03 A2991 RMK A01 T00461032  RH  057%=      5-min Rain = 0
KHA2 131242Z 30014KT 05/M03 A2991 RMK A01 T00451033  RH  057%=      5-min Rain = 0
KHA2 131243Z 30015KT 05/M03 A2991 RMK A01 T00451033  RH  057%=      5-min Rain = 0
KHA2 131244Z 30016KT 05/M03 A2991 RMK A01 T00451033  RH  057%=      5-min Rain = 0
KHA2 131245Z 30015KT 05/M03 A2991 RMK A01 T00451033  RH  057%=      5-min Rain = 0
KHA2 131246Z 30016KT 05/M03 A2991 RMK A01 T00461033  RH  057%=      5-min Rain = 0
KHA2 131247Z 30015KT 05/M03 A2991 RMK A01 T00461033  RH  057%=      5-min Rain = 0
KHA2 131248Z 30016G22KT 05/M03 A2991 RMK A01 T00461033  RH  056%=      5-min Rain = 0
KHA2 131249Z 30014KT 05/M03 A2991 RMK A01 T00471032  RH  056%=      5-min Rain = 0
KHA2 131250Z 30014KT 05/M03 A2991 RMK A01 T00461033  RH  057%=      5-min Rain = 0
KHA2 131251Z 30015KT 04/M03 A2991 RMK A01 T00441033  RH  057%=      5-min Rain = 0
KHA2 131252Z 30014KT 04/M03 A2991 RMK A01 T00441033  RH  057%=      5-min Rain = 0
KHA2 131253Z 30016KT 04/M03 A2991 RMK A01 T00441033  RH  058%=      5-min Rain = 0
KHA2 131254Z 30015KT 05/M03 A2991 RMK A01 T00451032  RH  057%=      5-min Rain = 0
KHA2 131255Z 30013KT 05/M03 A2991 RMK A01 T00451033  RH  057%=      5-min Rain = 0
KHA2 131256Z 30015KT 05/M03 A2991 RMK A01 T00451033  RH  057%=      5-min Rain = 0
KHA2 131257Z 30015KT 05/M03 A2991 RMK A01 T00471032  RH  057%=      5-min Rain = 0
KHA2 131258Z 30015KT 05/M03 A2991 RMK A01 T00471033  RH  056%=      5-min Rain = 0
KHA2 131259Z 30014KT 05/M03 A2992 RMK A01 T00471033  RH  056%=      5-min Rain = 0
KHA2 131300Z 30014KT 05/M03 A2992 RMK A01 T00461033  RH  057%=      5-min Rain = 0
KHA2 131301Z 30014KT 05/M03 A2992 RMK A01 T00451033  RH  057%=      5-min Rain = 0
KHA2 131302Z 29015KT 04/M03 A2992 RMK A01 T00441033  RH  057%=      5-min Rain = 0
KHA2 131303Z 29017KT 04/M03 A2992 RMK A01 T00441033  RH  057%=      5-min Rain = 0
KHA2 131304Z 29016KT 05/M03 A2992 RMK A01 T00451033  RH  057%=      5-min Rain = 0
KHA2 131305Z 29015KT 05/M03 A2992 RMK A01 T00451033  RH  057%=      5-min Rain = 0
KHA2 131306Z 29016KT 04/M03 A2992 RMK A01 T00441033  RH  057%=      5-min Rain = 0
KHA2 131307Z 29016KT 04/M03 A2992 RMK A01 T00441034  RH  057%=      5-min Rain = 0
KHA2 131308Z 29018KT 04/M03 A2991 RMK A01 T00441033  RH  057%=      5-min Rain = 0
KHA2 131309Z 29017KT 04/M03 A2991 RMK A01 T00441033  RH  057%=      5-min Rain = 0
KHA2 131310Z 29016KT 05/M03 A2991 RMK A01 T00451033  RH  057%=      5-min Rain = 0
KHA2 131311Z 29017KT 05/M03 A2991 RMK A01 T00461033  RH  056%=      5-min Rain = 0
KHA2 131312Z 29016G21KT 05/M03 A2991 RMK A01 T00471033  RH  056%=      5-min Rain = 0
KHA2 131313Z 29016KT 05/M03 A2992 RMK A01 T00481033  RH  056%=      5-min Rain = 0
KHA2 131314Z 29016G23KT 05/M03 A2992 RMK A01 T00481033  RH  056%=      5-min Rain = 0
KHA2 131315Z 29017KT 05/M03 A2992 RMK A01 T00481033  RH  056%=      5-min Rain = 0
KHA2 131316Z 29016G22KT 05/M03 A2992 RMK A01 T00481033  RH  056%=      5-min Rain = 0
KHA2 131317Z 29017KT 05/M03 A2992 RMK A01 T00481033  RH  056%=      5-min Rain = 0
KHA2 131318Z 29017KT 05/M03 A2992 RMK A01 T00481033  RH  056%=      5-min Rain = 0
KHA2 131319Z 29017KT 05/M03 A2992 RMK A01 T00471033  RH  056%=      5-min Rain = 0
KHA2 131320Z 29015G22KT 05/M03 A2992 RMK A01 T00471033  RH  056%=      5-min Rain = 0
KHA2 131321Z 29015KT 05/M03 A2992 RMK A01 T00461033  RH  056%=      5-min Rain = 0
KHA2 131322Z 29015KT 05/M03 A2992 RMK A01 T00461033  RH  057%=      5-min Rain = 0
KHA2 131323Z 29015KT 05/M03 A2992 RMK A01 T00451033  RH  057%=      5-min Rain = 0
KHA2 131324Z 29015KT 04/M03 A2992 RMK A01 T00441033  RH  057%=      5-min Rain = 0
KHA2 131325Z 29015KT 04/M03 A2992 RMK A01 T00441033  RH  057%=      5-min Rain = 0
KHA2 131326Z 29014KT 04/M03 A2993 RMK A01 T00431033  RH  058%=      5-min Rain = 0
KHA2 131327Z 29012KT 04/M03 A2993 RMK A01 T00411033  RH  058%=      5-min Rain = 0
KHA2 131328Z 29013KT 04/M03 A2993 RMK A01 T00401033  RH  059%=      5-min Rain = 0
KHA2 131329Z 29013KT 04/M03 A2993 RMK A01 T00391033  RH  059%=      5-min Rain = 0
KHA2 131330Z 29013KT 04/M03 A2993 RMK A01 T00401032  RH  059%=      5-min Rain = 0
KHA2 131331Z 29012KT 04/M03 A2993 RMK A01 T00401032  RH  059%=      5-min Rain = 0
KHA2 131332Z 29014KT 04/M03 A2993 RMK A01 T00411032  RH  059%=      5-min Rain = 0
KHA2 131333Z 29013G18KT 04/M03 A2993 RMK A01 T00411032  RH  059%=      5-min Rain = 0
KHA2 131334Z 29014KT 04/M03 A2993 RMK A01 T00421031  RH  059%=      5-min Rain = 0
KHA2 131335Z 29013KT 04/M03 A2993 RMK A01 T00431031  RH  058%=      5-min Rain = 0
KHA2 131336Z 29013KT 04/M03 A2993 RMK A01 T00431031  RH  058%=      5-min Rain = 0
KHA2 131337Z 29013KT 04/M03 A2992 RMK A01 T00441031  RH  058%=      5-min Rain = 0
KHA2 131338Z 29013KT 04/M03 A2992 RMK A01 T00441031  RH  058%=      5-min Rain = 0
KHA2 131339Z 29013KT 04/M03 A2992 RMK A01 T00441031  RH  058%=      5-min Rain = 0
KHA2 131340Z 29015KT 04/M03 A2992 RMK A01 T00431031  RH  059%=      5-min Rain = 0
KHA2 131341Z 29017KT 05/M03 A2992 RMK A01 T00451030  RH  058%=      5-min Rain = 0
KHA2 131342Z 29017KT 05/M03 A2992 RMK A01 T00481029  RH  057%=      5-min Rain = 0
KHA2 131343Z 29016KT 05/M03 A2992 RMK A01 T00491030  RH  057%=      5-min Rain = 0
KHA2 131344Z 29013KT 05/M03 A2993 RMK A01 T00481030  RH  057%=      5-min Rain = 0
KHA2 131345Z 29011G16KT 05/M03 A2993 RMK A01 T00481030  RH  057%=      5-min Rain = 0
KHA2 131346Z 29013KT 05/M03 A2992 RMK A01 T00461030  RH  058%=      5-min Rain = 0
KHA2 131347Z 29015KT 05/M03 A2992 RMK A01 T00461030  RH  058%=      5-min Rain = 0
KHA2 131348Z 29015KT 05/M03 A2992 RMK A01 T00461029  RH  058%=      5-min Rain = 0
KHA2 131349Z 30014KT 05/M03 A2992 RMK A01 T00461030  RH  058%=      5-min Rain = 0
KHA2 131350Z 29013KT 04/M03 A2993 RMK A01 T00441030  RH  059%=      5-min Rain = 0
KHA2 131351Z 29012KT 04/M03 A2992 RMK A01 T00431029  RH  059%=      5-min Rain = 0
KHA2 131352Z 30013KT 04/M03 A2992 RMK A01 T00431029  RH  059%=      5-min Rain = 0
KHA2 131353Z 30011KT 04/M03 A2993 RMK A01 T00411030  RH  060%=      5-min Rain = 0
KHA2 131354Z 30011KT 04/M03 A2993 RMK A01 T00391030  RH  061%=      5-min Rain = 0
KHA2 131355Z 30010KT 04/M03 A2993 RMK A01 T00371030  RH  062%=      5-min Rain = 0
KHA2 131356Z 30010KT 03/M03 A2993 RMK A01 T00341031  RH  063%=      5-min Rain = 0
KHA2 131357Z 29010KT 03/M03 A2993 RMK A01 T00311031  RH  064%=      5-min Rain = 0
KHA2 131358Z 29012G17KT 03/M03 A2993 RMK A01 T00311030  RH  065%=      5-min Rain = 0
KHA2 131359Z 29015KT 03/M03 A2993 RMK A01 T00331028  RH  064%=      5-min Rain = 0
KHA2 131400Z 30013KT 04/M03 A2993 RMK A01 T00361028  RH  063%=      5-min Rain = 0
KHA2 131401Z 29013KT 04/M03 A2993 RMK A01 T00361028  RH  063%=      5-min Rain = 0
KHA2 131402Z 29014KT 04/M03 A2993 RMK A01 T00371028  RH  062%=      5-min Rain = 0
KHA2 131403Z 29013KT 04/M03 A2993 RMK A01 T00401027  RH  062%=      5-min Rain = 0
KHA2 131404Z 29015KT 04/M03 A2993 RMK A01 T00421027  RH  061%=      5-min Rain = 0
KHA2 131405Z 29015KT 05/M03 A2993 RMK A01 T00461027  RH  059%=      5-min Rain = 0
KHA2 131406Z 29015KT 05/M03 A2993 RMK A01 T00471027  RH  059%=      5-min Rain = 0
KHA2 131407Z 29015KT 05/M03 A2993 RMK A01 T00481027  RH  058%=      5-min Rain = 0
KHA2 131408Z 29014KT 05/M03 A2993 RMK A01 T00481027  RH  058%=      5-min Rain = 0
KHA2 131409Z 29014KT 05/M03 A2993 RMK A01 T00471027  RH  059%=      5-min Rain = 0
KHA2 131410Z 29014KT 05/M03 A2993 RMK A01 T00461027  RH  059%=      5-min Rain = 0
KHA2 131411Z 29014KT 04/M03 A2993 RMK A01 T00441028  RH  060%=      5-min Rain = 0
KHA2 131412Z 30013KT 04/M03 A2993 RMK A01 T00431027  RH  060%=      5-min Rain = 0
KHA2 131413Z 30012KT 04/M03 A2993 RMK A01 T00421027  RH  061%=      5-min Rain = 0
KHA2 131414Z 29012KT 04/M03 A2993 RMK A01 T00401027  RH  062%=      5-min Rain = 0
KHA2 131415Z 30009KT 04/M03 A2993 RMK A01 T00381027  RH  062%=      5-min Rain = 0
KHA2 131416Z 30010KT 04/M03 A2993 RMK A01 T00361027  RH  063%=      5-min Rain = 0
KHA2 131417Z 30012KT 04/M03 A2993 RMK A01 T00361027  RH  064%=      5-min Rain = 0
KHA2 131418Z 29010KT 04/M03 A2994 RMK A01 T00361026  RH  064%=      5-min Rain = 0
KHA2 131419Z 29012KT 04/M03 A2994 RMK A01 T00351026  RH  064%=      5-min Rain = 0
KHA2 131420Z 30010KT 03/M03 A2994 RMK A01 T00341026  RH  065%=      5-min Rain = 0
KHA2 131421Z 29012KT 03/M03 A2994 RMK A01 T00341026  RH  065%=      5-min Rain = 0
KHA2 131422Z 29011KT 03/M03 A2994 RMK A01 T00341025  RH  065%=      5-min Rain = 0
KHA2 131423Z 29013KT 03/M03 A2994 RMK A01 T00341025  RH  065%=      5-min Rain = 0
KHA2 131424Z 29012KT 04/M03 A2994 RMK A01 T00361025  RH  065%=      5-min Rain = 0
KHA2 131425Z 29013KT 04/M02 A2994 RMK A01 T00371024  RH  064%=      5-min Rain = 0
KHA2 131426Z 29013KT 04/M02 A2994 RMK A01 T00381024  RH  064%=      5-min Rain = 0
KHA2 131427Z 29012KT 04/M02 A2994 RMK A01 T00391024  RH  063%=      5-min Rain = 0
KHA2 131428Z 29012KT 04/M02 A2994 RMK A01 T00401023  RH  063%=      5-min Rain = 0
KHA2 131429Z 29011KT 04/M02 A2994 RMK A01 T00421023  RH  063%=      5-min Rain = 0
KHA2 131430Z 29012KT 04/M02 A2994 RMK A01 T00421023  RH  063%=      5-min Rain = 0
KHA2 131431Z 29011KT 04/M02 A2994 RMK A01 T00441022  RH  062%=      5-min Rain = 0
KHA2 131432Z 29010KT 05/M02 A2994 RMK A01 T00461022  RH  062%=      5-min Rain = 0
KHA2 131433Z 29009KT 05/M02 A2994 RMK A01 T00461022  RH  061%=      5-min Rain = 0
KHA2 131434Z 29010KT 05/M02 A2994 RMK A01 T00471021  RH  062%=      5-min Rain = 0
KHA2 131435Z 29010KT 05/M02 A2994 RMK A01 T00481020  RH  061%=      5-min Rain = 0
KHA2 131436Z 29010KT 05/M02 A2994 RMK A01 T00501020  RH  061%=      5-min Rain = 0
KHA2 131437Z 29012KT 05/M02 A2994 RMK A01 T00521020  RH  060%=      5-min Rain = 0
KHA2 131438Z 29010KT 05/M02 A2994 RMK A01 T00531020  RH  059%=      5-min Rain = 0
KHA2 131439Z 29010KT 06/M02 A2994 RMK A01 T00551019  RH  059%=      5-min Rain = 0
KHA2 131440Z 29011KT 06/M02 A2994 RMK A01 T00561019  RH  058%=      5-min Rain = 0
KHA2 131441Z 29011KT 06/M02 A2994 RMK A01 T00571019  RH  058%=      5-min Rain = 0
KHA2 131442Z 29012G17KT 06/M02 A2994 RMK A01 T00581019  RH  058%=      5-min Rain = 0
KHA2 131443Z 29012KT 06/M02 A2994 RMK A01 T00591019  RH  058%=      5-min Rain = 0
KHA2 131444Z 29011KT 06/M02 A2994 RMK A01 T00601018  RH  057%=      5-min Rain = 0
KHA2 131445Z 29012KT 06/M02 A2994 RMK A01 T00601017  RH  057%=      5-min Rain = 0
KHA2 131446Z 29013KT 06/M02 A2994 RMK A01 T00601017  RH  058%=      5-min Rain = 0
KHA2 131447Z 29013KT 06/M02 A2994 RMK A01 T00601017  RH  058%=      5-min Rain = 0
KHA2 131448Z 29012G17KT 06/M02 A2994 RMK A01 T00601017  RH  058%=      5-min Rain = 0
KHA2 131449Z 29012KT 06/M02 A2994 RMK A01 T00601016  RH  058%=      5-min Rain = 0
KHA2 131450Z 28012KT 06/M02 A2994 RMK A01 T00611015  RH  058%=      5-min Rain = 0
KHA2 131451Z 29012G17KT 06/M02 A2994 RMK A01 T00621015  RH  058%=      5-min Rain = 0
KHA2 131452Z 28012KT 06/M02 A2994 RMK A01 T00631015  RH  058%=      5-min Rain = 0
KHA2 131453Z 28012KT 06/M02 A2994 RMK A01 T00631015  RH  057%=      5-min Rain = 0
KHA2 131454Z 28011KT 06/M01 A2994 RMK A01 T00621014  RH  058%=      5-min Rain = 0
KHA2 131455Z 28013KT 06/M01 A2994 RMK A01 T00611014  RH  059%=      5-min Rain = 0
KHA2 131456Z 28014KT 06/M01 A2994 RMK A01 T00601014  RH  059%=      5-min Rain = 0
KHA2 131457Z 28014KT 06/M02 A2994 RMK A01 T00621015  RH  058%=      5-min Rain = 0
KHA2 131458Z 28013KT 06/M02 A2994 RMK A01 T00641015  RH  057%=      5-min Rain = 0
KHA2 131459Z 28013KT 06/M02 A2994 RMK A01 T00641015  RH  057%=      5-min Rain = 0
KHA2 131500Z 28012KT 06/M01 A2994 RMK A01 T00641014  RH  058%=      5-min Rain = 0
KHA2 131501Z 28012KT 06/M01 A2994 RMK A01 T00631013  RH  058%=      5-min Rain = 0
KHA2 131502Z 28011G17KT 06/M01 A2995 RMK A01 T00621014  RH  058%=      5-min Rain = 0
KHA2 131503Z 29011KT 06/M01 A2995 RMK A01 T00621013  RH  059%=      5-min Rain = 0
KHA2 131504Z 28010KT 06/M01 A2995 RMK A01 T00631012  RH  059%=      5-min Rain = 0
KHA2 131505Z 28011KT 06/M01 A2995 RMK A01 T00641012  RH  058%=      5-min Rain = 0
KHA2 131506Z 28011KT 07/M01 A2994 RMK A01 T00651013  RH  057%=      5-min Rain = 0
KHA2 131507Z 29010KT 07/M01 A2994 RMK A01 T00671012  RH  057%=      5-min Rain = 0
KHA2 131508Z 28011KT 07/M01 A2994 RMK A01 T00671012  RH  057%=      5-min Rain = 0
KHA2 131509Z 28012KT 07/M01 A2994 RMK A01 T00681011  RH  057%=      5-min Rain = 0
KHA2 131510Z 28013KT 07/M01 A2994 RMK A01 T00691011  RH  057%=      5-min Rain = 0
KHA2 131511Z 28010KT 07/M01 A2994 RMK A01 T00691012  RH  056%=      5-min Rain = 0
KHA2 131512Z 28011KT 07/M01 A2994 RMK A01 T00701010  RH  057%=      5-min Rain = 0
KHA2 131513Z 28012KT 07/M01 A2994 RMK A01 T00701011  RH  056%=      5-min Rain = 0
KHA2 131514Z 28012KT 07/M01 A2994 RMK A01 T00711011  RH  056%=      5-min Rain = 0
KHA2 131515Z 29012KT 07/M01 A2994 RMK A01 T00711011  RH  056%=      5-min Rain = 0
KHA2 131516Z 29011KT 07/M01 A2994 RMK A01 T00721010  RH  056%=      5-min Rain = 0
KHA2 131517Z 28010KT 07/M01 A2995 RMK A01 T00721010  RH  056%=      5-min Rain = 0
KHA2 131518Z 28011KT 07/M01 A2995 RMK A01 T00721008  RH  057%=      5-min Rain = 0
KHA2 131519Z 29011KT 07/M01 A2994 RMK A01 T00731008  RH  056%=      5-min Rain = 0
KHA2 131520Z 29013KT 07/M01 A2994 RMK A01 T00741009  RH  056%=      5-min Rain = 0
KHA2 131521Z 29012KT 08/M01 A2995 RMK A01 T00751008  RH  056%=      5-min Rain = 0
KHA2 131522Z 28013KT 08/M01 A2995 RMK A01 T00761008  RH  056%=      5-min Rain = 0
KHA2 131523Z 29012KT 08/M01 A2994 RMK A01 T00761008  RH  055%=      5-min Rain = 0
KHA2 131524Z 28011KT 08/M01 A2994 RMK A01 T00771006  RH  056%=      5-min Rain = 0
KHA2 131525Z 29013KT 08/M01 A2994 RMK A01 T00781007  RH  055%=      5-min Rain = 0
KHA2 131526Z 29013KT 08/M01 A2994 RMK A01 T00791007  RH  055%=      5-min Rain = 0
KHA2 131527Z 29013KT 08/M01 A2994 RMK A01 T00801006  RH  055%=      5-min Rain = 0
KHA2 131528Z 28015KT 08/M01 A2995 RMK A01 T00811005  RH  054%=      5-min Rain = 0
KHA2 131529Z 29013KT 08/M01 A2995 RMK A01 T00821006  RH  054%=      5-min Rain = 0
KHA2 131530Z 29012KT 08/M01 A2994 RMK A01 T00831006  RH  054%=      5-min Rain = 0
KHA2 131531Z 29014KT 08/M01 A2994 RMK A01 T00841006  RH  053%=      5-min Rain = 0
KHA2 131532Z 29014KT 09/M01 A2994 RMK A01 T00851005  RH  053%=      5-min Rain = 0
KHA2 131533Z 29014KT 09/M01 A2994 RMK A01 T00861006  RH  052%=      5-min Rain = 0
KHA2 131534Z 29013KT 09/M01 A2994 RMK A01 T00881005  RH  052%=      5-min Rain = 0
KHA2 131535Z 29014KT 09/M01 A2994 RMK A01 T00891006  RH  052%=      5-min Rain = 0
KHA2 131536Z 29013KT 09/M01 A2994 RMK A01 T00901006  RH  051%=      5-min Rain = 0
KHA2 131537Z 29014KT 09/M01 A2994 RMK A01 T00911005  RH  051%=      5-min Rain = 0
KHA2 131538Z 29013KT 09/M01 A2994 RMK A01 T00931005  RH  050%=      5-min Rain = 0
KHA2 131539Z 29012KT 09/M01 A2994 RMK A01 T00941005  RH  050%=      5-min Rain = 0
KHA2 131540Z 29011KT 10/M00 A2994 RMK A01 T00961003  RH  050%=      5-min Rain = 0
KHA2 131541Z 29012KT 10/M00 A2994 RMK A01 T00971003  RH  050%=      5-min Rain = 0
KHA2 131542Z 29013KT 10/M00 A2994 RMK A01 T00981003  RH  049%=      5-min Rain = 0
KHA2 131543Z 29013KT 10/M00 A2994 RMK A01 T01001004  RH  049%=      5-min Rain = 0
KHA2 131544Z 30014KT 10/M01 A2994 RMK A01 T01011005  RH  048%=      5-min Rain = 0
KHA2 131545Z 29011KT 10/M00 A2994 RMK A01 T01021003  RH  048%=      5-min Rain = 0
KHA2 131546Z 29013KT 10/M00 A2994 RMK A01 T01031001  RH  048%=      5-min Rain = 0
KHA2 131547Z 29014KT 10/M00 A2994 RMK A01 T01041002  RH  047%=      5-min Rain = 0
KHA2 131548Z 30012KT 11/M00 A2994 RMK A01 T01051004  RH  047%=      5-min Rain = 0
KHA2 131549Z 30014KT 11/M00 A2994 RMK A01 T01071004  RH  046%=      5-min Rain = 0
KHA2 131550Z 29013KT 11/M00 A2994 RMK A01 T01081003  RH  046%=      5-min Rain = 0
KHA2 131551Z 30014KT 11/M00 A2994 RMK A01 T01091002  RH  046%=      5-min Rain = 0
KHA2 131552Z 30012KT 11/M00 A2994 RMK A01 T01101001  RH  046%=      5-min Rain = 0
KHA2 131553Z 30014KT 11/00 A2994 RMK A01 T01110001  RH  046%=      5-min Rain = 0
KHA2 131554Z 30015KT 11/M00 A2994 RMK A01 T01121002  RH  045%=      5-min Rain = 0
KHA2 131555Z 30016KT 11/M00 A2994 RMK A01 T01131003  RH  045%=      5-min Rain = 0
KHA2 131556Z 30013KT 11/M00 A2994 RMK A01 T01141003  RH  045%=      5-min Rain = 0
KHA2 131557Z 30012KT 11/M00 A2994 RMK A01 T01141002  RH  045%=      5-min Rain = 0
KHA2 131558Z 30012KT 12/00 A2994 RMK A01 T01160001  RH  045%=      5-min Rain = 0
KHA2 131559Z 30014KT 12/00 A2994 RMK A01 T01170002  RH  045%=      5-min Rain = 0
KHA2 131600Z 30015G21KT 12/00 A2994 RMK A01 T01170000  RH  044%=      5-min Rain = 0
KHA2 131601Z 30015KT 12/00 A2994 RMK A01 T011800-0  RH  044%=      5-min Rain = 0
KHA2 131602Z 30014G19KT 12/00 A2994 RMK A01 T011800-0  RH  044%=      5-min Rain = 0
KHA2 131603Z 30013G18KT 12/00 A2994 RMK A01 T01180000  RH  044%=      5-min Rain = 0
KHA2 131604Z 30016KT 12/00 A2994 RMK A01 T01190000  RH  044%=      5-min Rain = 0
KHA2 131605Z 31016KT 12/00 A2994 RMK A01 T01200001  RH  044%=      5-min Rain = 0
KHA2 131606Z 30017KT 12/00 A2994 RMK A01 T01210001  RH  044%=      5-min Rain = 0
KHA2 131607Z 30017KT 12/00 A2994 RMK A01 T012100-0  RH  043%=      5-min Rain = 0
KHA2 131608Z 30017KT 12/M00 A2994 RMK A01 T01211001  RH  043%=      5-min Rain = 0
KHA2 131609Z 30018G23KT 12/M00 A2994 RMK A01 T01221001  RH  043%=      5-min Rain = 0
KHA2 131610Z 30017KT 12/M00 A2994 RMK A01 T01221002  RH  042%=      5-min Rain = 0
KHA2 131611Z 30016KT 12/00 A2994 RMK A01 T01230000  RH  043%=      5-min Rain = 0
KHA2 131612Z 30014KT 12/00 A2994 RMK A01 T01230003  RH  044%=      5-min Rain = 0
KHA2 131613Z 30017KT 12/00 A2994 RMK A01 T01240002  RH  043%=      5-min Rain = 0
KHA2 131614Z 31019KT 12/00 A2994 RMK A01 T01240002  RH  043%=      5-min Rain = 0
KHA2 131615Z 30015KT 12/00 A2994 RMK A01 T01220001  RH  043%=      5-min Rain = 0
KHA2 131616Z 30016KT 12/00 A2994 RMK A01 T01230003  RH  044%=      5-min Rain = 0
KHA2 131617Z 31016KT 12/00 A2994 RMK A01 T01230003  RH  044%=      5-min Rain = 0
KHA2 131618Z 30018KT 12/00 A2994 RMK A01 T01240003  RH  044%=      5-min Rain = 0
KHA2 131619Z 30018KT 12/00 A2994 RMK A01 T01240002  RH  043%=      5-min Rain = 0
KHA2 131620Z 31017KT 12/00 A2994 RMK A01 T01240002  RH  043%=      5-min Rain = 0
KHA2 131621Z 31019KT 12/00 A2994 RMK A01 T01230003  RH  043%=      5-min Rain = 0
KHA2 131622Z 31016KT 12/00 A2994 RMK A01 T01240003  RH  043%=      5-min Rain = 0
KHA2 131623Z 31015KT 12/01 A2994 RMK A01 T01240005  RH  044%=      5-min Rain = 0
KHA2 131624Z 30012KT 13/01 A2994 RMK A01 T01250007  RH  044%=      5-min Rain = 0
KHA2 131625Z 31014KT 13/01 A2994 RMK A01 T01260010  RH  045%=      5-min Rain = 0
KHA2 131626Z 31016KT 13/01 A2994 RMK A01 T01270007  RH  044%=      5-min Rain = 0
KHA2 131627Z 31016KT 13/01 A2994 RMK A01 T01270006  RH  043%=      5-min Rain = 0
KHA2 131628Z 31017KT 13/01 A2994 RMK A01 T01270006  RH  044%=      5-min Rain = 0
KHA2 131629Z 31015KT 13/01 A2993 RMK A01 T01270006  RH  044%=      5-min Rain = 0
KHA2 131630Z 31015KT 13/01 A2993 RMK A01 T01270009  RH  044%=      5-min Rain = 0
KHA2 131631Z 31014KT 13/01 A2993 RMK A01 T01280007  RH  044%=      5-min Rain = 0
KHA2 131632Z 31015KT 13/01 A2993 RMK A01 T01290007  RH  043%=      5-min Rain = 0
KHA2 131633Z 31016KT 13/01 A2993 RMK A01 T01290007  RH  043%=      5-min Rain = 0
KHA2 131634Z 31017KT 13/01 A2993 RMK A01 T01300007  RH  043%=      5-min Rain = 0
KHA2 131635Z 31016KT 13/01 A2993 RMK A01 T01290007  RH  043%=      5-min Rain = 0
KHA2 131636Z 31017G22KT 13/01 A2993 RMK A01 T01300009  RH  044%=      5-min Rain = 0
KHA2 131637Z 31018KT 13/01 A2993 RMK A01 T01310007  RH  043%=      5-min Rain = 0
KHA2 131638Z 31018KT 13/01 A2993 RMK A01 T01310006  RH  043%=      5-min Rain = 0
KHA2 131639Z 31016KT 13/01 A2993 RMK A01 T01310008  RH  043%=      5-min Rain = 0
KHA2 131640Z 31020KT 13/01 A2993 RMK A01 T01330009  RH  043%=      5-min Rain = 0
KHA2 131641Z 31018KT 13/01 A2993 RMK A01 T01330006  RH  042%=      5-min Rain = 0
KHA2 131642Z 32016KT 13/01 A2994 RMK A01 T01340010  RH  043%=      5-min Rain = 0
KHA2 131643Z 32016KT 14/01 A2994 RMK A01 T01350011  RH  043%=      5-min Rain = 0
KHA2 131644Z 32018G23KT 14/01 A2994 RMK A01 T01350011  RH  043%=      5-min Rain = 0
KHA2 131645Z 31019KT 14/01 A2994 RMK A01 T01360010  RH  042%=      5-min Rain = 0
KHA2 131646Z 32020KT 14/01 A2994 RMK A01 T01360008  RH  042%=      5-min Rain = 0
KHA2 131647Z 32018KT 14/01 A2994 RMK A01 T01360009  RH  042%=      5-min Rain = 0
KHA2 131648Z 32017KT 14/01 A2994 RMK A01 T01370010  RH  042%=      5-min Rain = 0
KHA2 131649Z 32016KT 14/01 A2994 RMK A01 T01380010  RH  042%=      5-min Rain = 0
KHA2 131650Z 31016G21KT 14/01 A2994 RMK A01 T01390009  RH  041%=      5-min Rain = 0
KHA2 131651Z 31017G22KT 14/01 A2994 RMK A01 T01410012  RH  041%=      5-min Rain = 0
KHA2 131652Z 31019KT 14/01 A2993 RMK A01 T01420008  RH  040%=      5-min Rain = 0
KHA2 131653Z 32020KT 14/01 A2994 RMK A01 T01420006  RH  040%=      5-min Rain = 0
KHA2 131654Z 32020KT 14/00 A2994 RMK A01 T01420004  RH  039%=      5-min Rain = 0
KHA2 131655Z 32023KT 14/01 A2994 RMK A01 T01420005  RH  039%=      5-min Rain = 0
KHA2 131656Z 32022KT 14/00 A2994 RMK A01 T01430002  RH  038%=      5-min Rain = 0
KHA2 131657Z 32022KT 14/01 A2994 RMK A01 T01430005  RH  039%=      5-min Rain = 0
KHA2 131658Z 31022KT 14/00 A2994 RMK A01 T01440003  RH  038%=      5-min Rain = 0
KHA2 131659Z 31018KT 14/00 A2994 RMK A01 T01440004  RH  038%=      5-min Rain = 0
KHA2 131700Z 31020KT 15/01 A2993 RMK A01 T01450005  RH  038%=      5-min Rain = 0
KHA2 131701Z 32020KT 15/00 A2993 RMK A01 T01460004  RH  038%=      5-min Rain = 0
KHA2 131702Z 32022KT 15/00 A2993 RMK A01 T01470002  RH  037%=      5-min Rain = 0
KHA2 131703Z 32021KT 15/00 A2993 RMK A01 T01460002  RH  037%=      5-min Rain = 0
KHA2 131704Z 31018KT 15/00 A2993 RMK A01 T01460002  RH  037%=      5-min Rain = 0
KHA2 131705Z 32015KT 15/01 A2994 RMK A01 T01470007  RH  038%=      5-min Rain = 0
KHA2 131706Z 32019KT 15/01 A2994 RMK A01 T01500009  RH  038%=      5-min Rain = 0
KHA2 131707Z 32020KT 15/01 A2994 RMK A01 T01500006  RH  037%=      5-min Rain = 0
KHA2 131708Z 31019KT 15/01 A2993 RMK A01 T01500006  RH  037%=      5-min Rain = 0
KHA2 131709Z 31019KT 15/00 A2993 RMK A01 T01500004  RH  037%=      5-min Rain = 0
KHA2 131710Z 31022KT 15/00 A2993 RMK A01 T01490003  RH  037%=      5-min Rain = 0
KHA2 131711Z 32018KT 15/00 A2993 RMK A01 T01490002  RH  037%=      5-min Rain = 0
KHA2 131712Z 31019KT 15/01 A2994 RMK A01 T01490005  RH  037%=      5-min Rain = 0
KHA2 131713Z 31021G26KT 15/00 A2993 RMK A01 T01500003  RH  037%=      5-min Rain = 0
KHA2 131714Z 31020KT 15/00 A2993 RMK A01 T01500003  RH  037%=      5-min Rain = 0
KHA2 131715Z 30022KT 15/00 A2993 RMK A01 T01500002  RH  036%=      5-min Rain = 0
KHA2 131716Z 30020G25KT 15/M00 A2993 RMK A01 T01491001  RH  036%=      5-min Rain = 0
KHA2 131717Z 31019G24KT 15/00 A2993 RMK A01 T01490003  RH  037%=      5-min Rain = 0
KHA2 131718Z 31023G29KT 15/00 A2993 RMK A01 T01500002  RH  036%=      5-min Rain = 0
KHA2 131719Z 31019G24KT 15/00 A2993 RMK A01 T01500000  RH  036%=      5-min Rain = 0
KHA2 131720Z 31018KT 15/00 A2993 RMK A01 T01500002  RH  036%=      5-min Rain = 0
KHA2 131721Z 31019KT 15/00 A2993 RMK A01 T01520004  RH  037%=      5-min Rain = 0
KHA2 131722Z 31019KT 15/00 A2993 RMK A01 T01520004  RH  036%=      5-min Rain = 0
KHA2 131723Z 31019G24KT 15/00 A2993 RMK A01 T01520002  RH  036%=      5-min Rain = 0
KHA2 131724Z 31018G23KT 15/00 A2993 RMK A01 T01520001  RH  036%=      5-min Rain = 0
KHA2 131725Z 31020KT 15/01 A2993 RMK A01 T01520005  RH  037%=      5-min Rain = 0
KHA2 131726Z 32019KT 15/00 A2993 RMK A01 T01530003  RH  036%=      5-min Rain = 0
KHA2 131727Z 31021KT 15/00 A2993 RMK A01 T01530003  RH  036%=      5-min Rain = 0
KHA2 131728Z 31021KT 15/00 A2993 RMK A01 T01530001  RH  036%=      5-min Rain = 0
KHA2 131729Z 30020KT 15/00 A2993 RMK A01 T01520001  RH  036%=      5-min Rain = 0
KHA2 131730Z 31020KT 15/00 A2993 RMK A01 T01520000  RH  036%=      5-min Rain = 0
KHA2 131731Z 31018KT 15/00 A2993 RMK A01 T01520002  RH  036%=      5-min Rain = 0
KHA2 131732Z 32018KT 15/01 A2993 RMK A01 T01540005  RH  036%=      5-min Rain = 0
KHA2 131733Z 31019KT 16/00 A2993 RMK A01 T01550004  RH  036%=      5-min Rain = 0
KHA2 131734Z 31015KT 16/01 A2993 RMK A01 T01550005  RH  036%=      5-min Rain = 0
KHA2 131735Z 32015KT 16/01 A2994 RMK A01 T01570011  RH  037%=      5-min Rain = 0
KHA2 131736Z 31018KT 16/01 A2993 RMK A01 T01590009  RH  036%=      5-min Rain = 0
KHA2 131737Z 31017KT 16/00 A2994 RMK A01 T01570004  RH  035%=      5-min Rain = 0
KHA2 131738Z 30019KT 16/00 A2993 RMK A01 T01560003  RH  035%=      5-min Rain = 0
KHA2 131739Z 31018KT 16/00 A2993 RMK A01 T01560002  RH  035%=      5-min Rain = 0
KHA2 131740Z 31017KT 16/00 A2993 RMK A01 T01560002  RH  035%=      5-min Rain = 0
KHA2 131741Z 31017KT 16/00 A2993 RMK A01 T01560001  RH  035%=      5-min Rain = 0
KHA2 131742Z 30016KT 16/00 A2993 RMK A01 T01560003  RH  035%=      5-min Rain = 0
KHA2 131743Z 30017KT 16/00 A2993 RMK A01 T01570004  RH  035%=      5-min Rain = 0
KHA2 131744Z 31017KT 16/00 A2993 RMK A01 T01580004  RH  035%=      5-min Rain = 0
KHA2 131745Z 31016KT 16/00 A2992 RMK A01 T01580002  RH  035%=      5-min Rain = 0
KHA2 131746Z 30018KT 16/00 A2992 RMK A01 T01580004  RH  035%=      5-min Rain = 0
KHA2 131747Z 31018KT 16/00 A2992 RMK A01 T01580002  RH  034%=      5-min Rain = 0
KHA2 131748Z 31018KT 16/00 A2993 RMK A01 T01580001  RH  034%=      5-min Rain = 0
KHA2 131749Z 31016KT 16/00 A2993 RMK A01 T01580001  RH  034%=      5-min Rain = 0
KHA2 131750Z 31018KT 16/00 A2993 RMK A01 T01600000  RH  034%=      5-min Rain = 0
KHA2 131751Z 31017KT 16/M00 A2993 RMK A01 T01591003  RH  033%=      5-min Rain = 0
KHA2 131752Z 31016G21KT 16/M00 A2992 RMK A01 T01591002  RH  033%=      5-min Rain = 0
KHA2 131753Z 31017KT 16/M00 A2992 RMK A01 T01601001  RH  034%=      5-min Rain = 0
KHA2 131754Z 31016KT 16/M00 A2992 RMK A01 T01611001  RH  033%=      5-min Rain = 0
KHA2 131755Z 31016KT 16/M00 A2992 RMK A01 T01621002  RH  033%=      5-min Rain = 0
KHA2 131756Z 31014KT 16/M00 A2992 RMK A01 T01611002  RH  033%=      5-min Rain = 0
KHA2 131757Z 32016KT 16/00 A2992 RMK A01 T01610002  RH  034%=      5-min Rain = 0
KHA2 131758Z 32015KT 16/00 A2992 RMK A01 T016200-0  RH  033%=      5-min Rain = 0
KHA2 131759Z 32017KT 16/M00 A2992 RMK A01 T01631004  RH  032%=      5-min Rain = 0
KHA2 131800Z 32019KT 16/M01 A2992 RMK A01 T01631008  RH  031%=      5-min Rain = 0
KHA2 131801Z 32017KT 16/M01 A2992 RMK A01 T01621011  RH  031%=      5-min Rain = 0
KHA2 131802Z 33016KT 16/M01 A2992 RMK A01 T01631007  RH  031%=      5-min Rain = 0
KHA2 131803Z 32016KT 16/M01 A2992 RMK A01 T01631007  RH  031%=      5-min Rain = 0
KHA2 131804Z 31015KT 16/M00 A2991 RMK A01 T01631004  RH  032%=      5-min Rain = 0
KHA2 131805Z 31015KT 16/M00 A2991 RMK A01 T01631002  RH  033%=      5-min Rain = 0
KHA2 131806Z 32019KT 16/M00 A2991 RMK A01 T01631002  RH  033%=      5-min Rain = 0
KHA2 131807Z 32017KT 16/M01 A2991 RMK A01 T01631009  RH  031%=      5-min Rain = 0
KHA2 131808Z 33018KT 16/M01 A2991 RMK A01 T01631008  RH  031%=      5-min Rain = 0
KHA2 131809Z 33015KT 16/M01 A2992 RMK A01 T01631010  RH  031%=      5-min Rain = 0
KHA2 131810Z 32013KT 16/M01 A2992 RMK A01 T01631010  RH  031%=      5-min Rain = 0
KHA2 131811Z 31016KT 16/M01 A2992 RMK A01 T01631007  RH  031%=      5-min Rain = 0
KHA2 131812Z 33014KT 16/M01 A2992 RMK A01 T01641005  RH  032%=      5-min Rain = 0
KHA2 131813Z 33014KT 17/M01 A2991 RMK A01 T01651005  RH  031%=      5-min Rain = 0
KHA2 131814Z 32014KT 17/M01 A2991 RMK A01 T01651005  RH  031%=      5-min Rain = 0
KHA2 131815Z 32017KT 17/M01 A2991 RMK A01 T01651007  RH  031%=      5-min Rain = 0
KHA2 131816Z 33015KT 17/M01 A2991 RMK A01 T01651010  RH  030%=      5-min Rain = 0
KHA2 131817Z 34017KT 16/M01 A2991 RMK A01 T01641010  RH  030%=      5-min Rain = 0
KHA2 131818Z 34015KT 16/M01 A2991 RMK A01 T01641012  RH  030%=      5-min Rain = 0
KHA2 131819Z 33015KT 16/M01 A2991 RMK A01 T01641011  RH  030%=      5-min Rain = 0
KHA2 131820Z 33015KT 17/M01 A2991 RMK A01 T01651010  RH  030%=      5-min Rain = 0
KHA2 131821Z 33012KT 17/M01 A2991 RMK A01 T01651008  RH  031%=      5-min Rain = 0
KHA2 131822Z 32015KT 17/M01 A299 RMK A01 T01651009  RH  030%=      5-min Rain = 0
KHA2 131823Z 33016KT 17/M01 A299 RMK A01 T01651008  RH  031%=      5-min Rain = 0
KHA2 131824Z 33014KT 16/M01 A299 RMK A01 T01641008  RH  031%=      5-min Rain = 0
KHA2 131825Z 33014KT 16/M01 A299 RMK A01 T01641008  RH  031%=      5-min Rain = 0
KHA2 131826Z 33017KT 17/M01 A299 RMK A01 T01651009  RH  031%=      5-min Rain = 0
KHA2 131827Z 33016KT 17/M01 A299 RMK A01 T01651009  RH  031%=      5-min Rain = 0
KHA2 131828Z 32015KT 16/M01 A299 RMK A01 T01641011  RH  030%=      5-min Rain = 0
KHA2 131829Z 33013KT 16/M01 A299 RMK A01 T01631009  RH  031%=      5-min Rain = 0
KHA2 131830Z 32014KT 16/M01 A299 RMK A01 T01641007  RH  031%=      5-min Rain = 0
KHA2 131831Z 33012KT 17/M01 A299 RMK A01 T01651005  RH  031%=      5-min Rain = 0
KHA2 131832Z 34016KT 17/M01 A299 RMK A01 T01671005  RH  031%=      5-min Rain = 0
KHA2 131833Z 34013KT 17/M01 A299 RMK A01 T01661009  RH  030%=      5-min Rain = 0
KHA2 131834Z 34012KT 17/M01 A2989 RMK A01 T01651008  RH  031%=      5-min Rain = 0
KHA2 131835Z 33015KT 17/M01 A2989 RMK A01 T01651006  RH  031%=      5-min Rain = 0
KHA2 131836Z 34014KT 17/M01 A299 RMK A01 T01661011  RH  030%=      5-min Rain = 0
KHA2 131837Z 34010KT 17/M01 A299 RMK A01 T01651012  RH  030%=      5-min Rain = 0
KHA2 131838Z 34014KT 17/M01 A299 RMK A01 T01661005  RH  031%=      5-min Rain = 0
KHA2 131839Z 31017KT 17/M00 A299 RMK A01 T01681004  RH  031%=      5-min Rain = 0
KHA2 131840Z 32016KT 17/M01 A299 RMK A01 T01681005  RH  031%=      5-min Rain = 0
KHA2 131841Z 33015KT 17/M01 A299 RMK A01 T01681005  RH  031%=      5-min Rain = 0
KHA2 131842Z 33013KT 17/M00 A299 RMK A01 T01661004  RH  031%=      5-min Rain = 0
KHA2 131843Z 33012KT 17/00 A299 RMK A01 T01680000  RH  032%=      5-min Rain = 0
KHA2 131844Z 33013KT 17/00 A299 RMK A01 T01700003  RH  032%=      5-min Rain = 0
KHA2 131845Z 33016KT 17/M00 A299 RMK A01 T01711002  RH  031%=      5-min Rain = 0
KHA2 131846Z 33014KT 17/M01 A299 RMK A01 T01691006  RH  030%=      5-min Rain = 0
KHA2 131847Z 33014KT 17/M01 A299 RMK A01 T01681006  RH  031%=      5-min Rain = 0
KHA2 131848Z 32016G21KT 17/M00 A299 RMK A01 T01681003  RH  031%=      5-min Rain = 0
KHA2 131849Z 32017KT 17/M00 A299 RMK A01 T01681004  RH  031%=      5-min Rain = 0
KHA2 131850Z 32016KT 17/M00 A299 RMK A01 T01691004  RH  031%=      5-min Rain = 0
KHA2 131851Z 32017KT 17/M01 A299 RMK A01 T01681007  RH  030%=      5-min Rain = 0
KHA2 131852Z 32015KT 17/M01 A299 RMK A01 T01671006  RH  031%=      5-min Rain = 0
KHA2 131853Z 33015KT 17/M00 A299 RMK A01 T01671004  RH  031%=      5-min Rain = 0
KHA2 131854Z 33016KT 17/M01 A2989 RMK A01 T01671005  RH  031%=      5-min Rain = 0
KHA2 131855Z 32016KT 17/M01 A2989 RMK A01 T01681006  RH  031%=      5-min Rain = 0
KHA2 131856Z 32014KT 17/M01 A2989 RMK A01 T01671005  RH  031%=      5-min Rain = 0
KHA2 131857Z 32013G18KT 17/M00 A2989 RMK A01 T01681001  RH  032%=      5-min Rain = 0
KHA2 131858Z 32015KT 17/M00 A2989 RMK A01 T01701002  RH  031%=      5-min Rain = 0
KHA2 131859Z 32015KT 17/M00 A2989 RMK A01 T01701003  RH  031%=      5-min Rain = 0
KHA2 131900Z 31015KT 17/M00 A2989 RMK A01 T01701002  RH  031%=      5-min Rain = 0
KHA2 131901Z 32016KT 17/M01 A2989 RMK A01 T01701006  RH  030%=      5-min Rain = 0
KHA2 131902Z 31017KT 17/M01 A2989 RMK A01 T01691005  RH  031%=      5-min Rain = 0
KHA2 131903Z 31016KT 17/M01 A2989 RMK A01 T01681007  RH  030%=      5-min Rain = 0
KHA2 131904Z 33015KT 17/M00 A2989 RMK A01 T01681002  RH  031%=      5-min Rain = 0
KHA2 131905Z 33015KT 17/M00 A2989 RMK A01 T01691004  RH  031%=      5-min Rain = 0
KHA2 131906Z 32016KT 17/M00 A2989 RMK A01 T01701004  RH  031%=      5-min Rain = 0
KHA2 131907Z 31015KT 17/M01 A2989 RMK A01 T01701008  RH  030%=      5-min Rain = 0
KHA2 131908Z 31017KT 17/M01 A2989 RMK A01 T01691006  RH  031%=      5-min Rain = 0
KHA2 131909Z 32014KT 17/M01 A2989 RMK A01 T01681006  RH  031%=      5-min Rain = 0
KHA2 131910Z 32014KT 17/M01 A2989 RMK A01 T01681005  RH  031%=      5-min Rain = 0
KHA2 131911Z 31015KT 17/M00 A2989 RMK A01 T01701002  RH  031%=      5-min Rain = 0
KHA2 131912Z 31015KT 17/M01 A2989 RMK A01 T01701008  RH  030%=      5-min Rain = 0
KHA2 131913Z 33014KT 17/M01 A2989 RMK A01 T01701006  RH  030%=      5-min Rain = 0
KHA2 131914Z 32016KT 17/M01 A2989 RMK A01 T01711006  RH  030%=      5-min Rain = 0
KHA2 131915Z 32016KT 17/M01 A2989 RMK A01 T01711008  RH  030%=      5-min Rain = 0
KHA2 131916Z 32017KT 17/M01 A2989 RMK A01 T01711011  RH  029%=      5-min Rain = 0
KHA2 131917Z 33017KT 17/M01 A2989 RMK A01 T01701011  RH  029%=      5-min Rain = 0
KHA2 131918Z 33016KT 17/M01 A2989 RMK A01 T01701009  RH  030%=      5-min Rain = 0
KHA2 131919Z 32015KT 17/M01 A2988 RMK A01 T01701008  RH  030%=      5-min Rain = 0
KHA2 131920Z 31015KT 17/M01 A2988 RMK A01 T01701008  RH  030%=      5-min Rain = 0
KHA2 131921Z 32015KT 17/M01 A2988 RMK A01 T01691008  RH  030%=      5-min Rain = 0
KHA2 131922Z 32014KT 17/M01 A2988 RMK A01 T01701005  RH  030%=      5-min Rain = 0
KHA2 131923Z 33016KT 17/M00 A2988 RMK A01 T01711004  RH  030%=      5-min Rain = 0
KHA2 131924Z 32016KT 17/M01 A2988 RMK A01 T01721008  RH  029%=      5-min Rain = 0
KHA2 131925Z 32014KT 17/M01 A2988 RMK A01 T01721008  RH  029%=      5-min Rain = 0
KHA2 131926Z 32013KT 17/M01 A2988 RMK A01 T01711007  RH  030%=      5-min Rain = 0
KHA2 131927Z 32016KT 17/M01 A2988 RMK A01 T01711009  RH  030%=      5-min Rain = 0
KHA2 131928Z 32015KT 17/M01 A2988 RMK A01 T01701010  RH  029%=      5-min Rain = 0
KHA2 131929Z 33015KT 17/M01 A2988 RMK A01 T01721006  RH  030%=      5-min Rain = 0
KHA2 131930Z 32017KT 17/M01 A2988 RMK A01 T01721010  RH  029%=      5-min Rain = 0
KHA2 131931Z 32014KT 17/M01 A2988 RMK A01 T01711009  RH  029%=      5-min Rain = 0
KHA2 131932Z 32011KT 17/M01 A2988 RMK A01 T01701008  RH  030%=      5-min Rain = 0
KHA2 131933Z 32015KT 17/M01 A2988 RMK A01 T01711007  RH  030%=      5-min Rain = 0
KHA2 131934Z 31016KT 17/M01 A2988 RMK A01 T01721011  RH  029%=      5-min Rain = 0
KHA2 131935Z 32014KT 17/M01 A2988 RMK A01 T01711009  RH  029%=      5-min Rain = 0
KHA2 131936Z 32013KT 17/M01 A2988 RMK A01 T01711008  RH  030%=      5-min Rain = 0
KHA2 131937Z 32014KT 17/M01 A2988 RMK A01 T01711009  RH  029%=      5-min Rain = 0
KHA2 131938Z 31013KT 17/M01 A2988 RMK A01 T01721007  RH  030%=      5-min Rain = 0
KHA2 131939Z 31013KT 17/M01 A2988 RMK A01 T01731006  RH  030%=      5-min Rain = 0
KHA2 131940Z 32011KT 17/M01 A2988 RMK A01 T01741005  RH  030%=      5-min Rain = 0
KHA2 131941Z 32014G19KT 18/M00 A2988 RMK A01 T01761003  RH  030%=      5-min Rain = 0
KHA2 131942Z 31016KT 18/M01 A2988 RMK A01 T01761008  RH  029%=      5-min Rain = 0
KHA2 131943Z 31013KT 17/M01 A2988 RMK A01 T01741008  RH  029%=      5-min Rain = 0
KHA2 131944Z 30013KT 17/M01 A2987 RMK A01 T01731009  RH  029%=      5-min Rain = 0
KHA2 131945Z 31013KT 17/M01 A2987 RMK A01 T01731007  RH  030%=      5-min Rain = 0
KHA2 131946Z 31011G16KT 17/M01 A2987 RMK A01 T01741009  RH  029%=      5-min Rain = 0
KHA2 131947Z 32014KT 18/M01 A2987 RMK A01 T01761006  RH  029%=      5-min Rain = 0
KHA2 131948Z 32014G19KT 18/M01 A2987 RMK A01 T01771011  RH  028%=      5-min Rain = 0
KHA2 131949Z 32012KT 18/M01 A2987 RMK A01 T01761010  RH  028%=      5-min Rain = 0
KHA2 131950Z 30012KT 18/M01 A2987 RMK A01 T01771009  RH  028%=      5-min Rain = 0
KHA2 131951Z 32011KT 18/M01 A2987 RMK A01 T01771012  RH  028%=      5-min Rain = 0
KHA2 131952Z 32012KT 18/M01 A2987 RMK A01 T01761012  RH  028%=      5-min Rain = 0
KHA2 131953Z 31014KT 18/M01 A2987 RMK A01 T01761012  RH  028%=      5-min Rain = 0
KHA2 131954Z 30014KT 18/M01 A2987 RMK A01 T01751012  RH  028%=      5-min Rain = 0
KHA2 131955Z 30015KT 18/M02 A2987 RMK A01 T01761015  RH  027%=      5-min Rain = 0
KHA2 131956Z 30016KT 18/M02 A2987 RMK A01 T01761017  RH  027%=      5-min Rain = 0
KHA2 131957Z 31013KT 18/M02 A2987 RMK A01 T01751017  RH  027%=      5-min Rain = 0
KHA2 131958Z 31010KT 18/M01 A2987 RMK A01 T01751013  RH  028%=      5-min Rain = 0
KHA2 131959Z 31011KT 18/M01 A2987 RMK A01 T01771007  RH  029%=      5-min Rain = 0
KHA2 132000Z 31012KT 18/M01 A2987 RMK A01 T01801005  RH  029%=      5-min Rain = 0
KHA2 132001Z 31014KT 18/M01 A2987 RMK A01 T01801007  RH  028%=      5-min Rain = 0
KHA2 132002Z 31013KT 18/M01 A2987 RMK A01 T01791010  RH  028%=      5-min Rain = 0
KHA2 132003Z 32012KT 18/M01 A2987 RMK A01 T01781009  RH  028%=      5-min Rain = 0
KHA2 132004Z 31014KT 18/M01 A2987 RMK A01 T01781009  RH  028%=      5-min Rain = 0
KHA2 132005Z 31013KT 18/M01 A2987 RMK A01 T01781010  RH  028%=      5-min Rain = 0
KHA2 132006Z 31013KT 18/M01 A2987 RMK A01 T01791010  RH  028%=      5-min Rain = 0
KHA2 132007Z 32013KT 18/M01 A2987 RMK A01 T01791011  RH  028%=      5-min Rain = 0
KHA2 132008Z 32015KT 18/M01 A2987 RMK A01 T01771012  RH  028%=      5-min Rain = 0
KHA2 132009Z 32015KT 18/M01 A2986 RMK A01 T01771011  RH  028%=      5-min Rain = 0
KHA2 132010Z 33015KT 18/M01 A2986 RMK A01 T01771013  RH  028%=      5-min Rain = 0
KHA2 132011Z 33013KT 18/M01 A2987 RMK A01 T01761011  RH  028%=      5-min Rain = 0
KHA2 132012Z 32012KT 18/M00 A2987 RMK A01 T01781004  RH  029%=      5-min Rain = 0
KHA2 132013Z 31012KT 18/M01 A2987 RMK A01 T01791007  RH  028%=      5-min Rain = 0
KHA2 132014Z 32013KT 18/M01 A2987 RMK A01 T01801006  RH  028%=      5-min Rain = 0
KHA2 132015Z 31012KT 18/M01 A2986 RMK A01 T01791010  RH  028%=      5-min Rain = 0
KHA2 132016Z 32014KT 18/M01 A2986 RMK A01 T01781011  RH  028%=      5-min Rain = 0
KHA2 132017Z 33012KT 18/M01 A2986 RMK A01 T01771009  RH  028%=      5-min Rain = 0
KHA2 132018Z 32011KT 18/M01 A2986 RMK A01 T01761006  RH  029%=      5-min Rain = 0
KHA2 132019Z 32014KT 18/M01 A2986 RMK A01 T01781008  RH  028%=      5-min Rain = 0
KHA2 132020Z 32011KT 18/M01 A2986 RMK A01 T01781005  RH  029%=      5-min Rain = 0
KHA2 132021Z 32011KT 18/M00 A2986 RMK A01 T01801003  RH  029%=      5-min Rain = 0
KHA2 132022Z 32011KT 18/M01 A2986 RMK A01 T01801005  RH  028%=      5-min Rain = 0
KHA2 132023Z 31011KT 18/M01 A2986 RMK A01 T01801006  RH  028%=      5-min Rain = 0
KHA2 132024Z 30014KT 18/M01 A2986 RMK A01 T01791010  RH  028%=      5-min Rain = 0
KHA2 132025Z 29012KT 18/M01 A2986 RMK A01 T01791009  RH  028%=      5-min Rain = 0
KHA2 132026Z 29014KT 18/M02 A2986 RMK A01 T01791015  RH  027%=      5-min Rain = 0
KHA2 132027Z 30014KT 18/M02 A2986 RMK A01 T01781016  RH  027%=      5-min Rain = 0
KHA2 132028Z 31011KT 18/M01 A2986 RMK A01 T01771014  RH  027%=      5-min Rain = 0
KHA2 132029Z 32011KT 18/M01 A2986 RMK A01 T01771011  RH  028%=      5-min Rain = 0
KHA2 132030Z 32015KT 18/M01 A2986 RMK A01 T01791007  RH  028%=      5-min Rain = 0
KHA2 132031Z 33014KT 18/M01 A2986 RMK A01 T01791007  RH  028%=      5-min Rain = 0
KHA2 132032Z 32013KT 18/M01 A2986 RMK A01 T01791008  RH  028%=      5-min Rain = 0
KHA2 132033Z 32013KT 18/M01 A2986 RMK A01 T01791010  RH  028%=      5-min Rain = 0
KHA2 132034Z 33011KT 18/M01 A2986 RMK A01 T01781010  RH  028%=      5-min Rain = 0
KHA2 132035Z 33009KT 18/M01 A2986 RMK A01 T01771009  RH  028%=      5-min Rain = 0
KHA2 132036Z 31010KT 18/M01 A2986 RMK A01 T01781007  RH  028%=      5-min Rain = 0
KHA2 132037Z 30010KT 18/M01 A2986 RMK A01 T01791007  RH  028%=      5-min Rain = 0
KHA2 132038Z 30010KT 18/M01 A2986 RMK A01 T01801009  RH  028%=      5-min Rain = 0
KHA2 132039Z 31010KT 18/M01 A2986 RMK A01 T01801007  RH  028%=      5-min Rain = 0
KHA2 132040Z 30011KT 18/M01 A2986 RMK A01 T01801008  RH  028%=      5-min Rain = 0
KHA2 132041Z 31010KT 18/M01 A2986 RMK A01 T01801008  RH  028%=      5-min Rain = 0
KHA2 132042Z 31014KT 18/M01 A2986 RMK A01 T01811006  RH  028%=      5-min Rain = 0
KHA2 132043Z 31013KT 18/M01 A2986 RMK A01 T01811010  RH  027%=      5-min Rain = 0
KHA2 132044Z 31011KT 18/M01 A2986 RMK A01 T01801010  RH  028%=      5-min Rain = 0
KHA2 132045Z 31013KT 18/M01 A2986 RMK A01 T01801009  RH  028%=      5-min Rain = 0
KHA2 132046Z 31012KT 18/M01 A2986 RMK A01 T01811009  RH  028%=      5-min Rain = 0
KHA2 132047Z 31010KT 18/M01 A2986 RMK A01 T01801010  RH  028%=      5-min Rain = 0
KHA2 132048Z 31008KT 18/M01 A2986 RMK A01 T01801010  RH  028%=      5-min Rain = 0
KHA2 132049Z 31011KT 18/M01 A2986 RMK A01 T01791008  RH  028%=      5-min Rain = 0
KHA2 132050Z 31013KT 18/M01 A2986 RMK A01 T01801007  RH  028%=      5-min Rain = 0
KHA2 132051Z 31013KT 18/M01 A2986 RMK A01 T01811008  RH  028%=      5-min Rain = 0
KHA2 132052Z 31011KT 18/M01 A2986 RMK A01 T01811010  RH  027%=      5-min Rain = 0
KHA2 132053Z 29011KT 18/M01 A2986 RMK A01 T01811008  RH  028%=      5-min Rain = 0
KHA2 132054Z 32010KT 18/M01 A2986 RMK A01 T01821007  RH  028%=      5-min Rain = 0
KHA2 132055Z 33011KT 18/M00 A2986 RMK A01 T01821003  RH  028%=      5-min Rain = 0
KHA2 132056Z 32012KT 18/M01 A2986 RMK A01 T01831005  RH  028%=      5-min Rain = 0
KHA2 132057Z 33011KT 18/M01 A2986 RMK A01 T01831007  RH  028%=      5-min Rain = 0
KHA2 132058Z 33013KT 18/M01 A2986 RMK A01 T01821006  RH  028%=      5-min Rain = 0
KHA2 132059Z 31011KT 18/M01 A2986 RMK A01 T01811007  RH  028%=      5-min Rain = 0
KHA2 132100Z 31014KT 18/M01 A2986 RMK A01 T01811006  RH  028%=      5-min Rain = 0
KHA2 132101Z 31014KT 18/M01 A2986 RMK A01 T01821007  RH  028%=      5-min Rain = 0
KHA2 132102Z 30012KT 18/M01 A2986 RMK A01 T01821009  RH  027%=      5-min Rain = 0
KHA2 132103Z 28010KT 18/M01 A2986 RMK A01 T01831007  RH  028%=      5-min Rain = 0
KHA2 132104Z 29009KT 18/M01 A2986 RMK A01 T01831010  RH  027%=      5-min Rain = 0
KHA2 132105Z 28010KT 18/M01 A2986 RMK A01 T01831009  RH  027%=      5-min Rain = 0
KHA2 132106Z 28009KT 18/M01 A2986 RMK A01 T01821007  RH  028%=      5-min Rain = 0
KHA2 132107Z 30009KT 18/M01 A2986 RMK A01 T01821007  RH  028%=      5-min Rain = 0
KHA2 132108Z 30011KT 18/M01 A2986 RMK A01 T01831005  RH  028%=      5-min Rain = 0
KHA2 132109Z 30009KT 18/M01 A2986 RMK A01 T01831008  RH  027%=      5-min Rain = 0
KHA2 132110Z 30007KT 18/M01 A2986 RMK A01 T01821013  RH  027%=      5-min Rain = 0
KHA2 132111Z 29007KT 18/M01 A2986 RMK A01 T01811005  RH  028%=      5-min Rain = 0
KHA2 132112Z 32008KT 18/M01 A2986 RMK A01 T01821007  RH  028%=      5-min Rain = 0
KHA2 132113Z 32009KT 18/M01 A2986 RMK A01 T01821009  RH  027%=      5-min Rain = 0
KHA2 132114Z 32008KT 18/M01 A2986 RMK A01 T01821005  RH  028%=      5-min Rain = 0
KHA2 132115Z 30006KT 18/M01 A2986 RMK A01 T01811008  RH  028%=      5-min Rain = 0
KHA2 132116Z 31008KT 18/M01 A2986 RMK A01 T01811008  RH  028%=      5-min Rain = 0
KHA2 132117Z 31006KT 18/M01 A2985 RMK A01 T01811009  RH  028%=      5-min Rain = 0
KHA2 132118Z 32007KT 18/M00 A2985 RMK A01 T01821003  RH  029%=      5-min Rain = 0
KHA2 132119Z 33006KT 18/M01 A2985 RMK A01 T01831005  RH  028%=      5-min Rain = 0
KHA2 132120Z 33007KT 18/M00 A2985 RMK A01 T01831003  RH  028%=      5-min Rain = 0
KHA2 132121Z 32007KT 18/M00 A2985 RMK A01 T01831003  RH  028%=      5-min Rain = 0
KHA2 132122Z 33010KT 18/M01 A2985 RMK A01 T01831007  RH  028%=      5-min Rain = 0
KHA2 132123Z 33010KT 18/M01 A2985 RMK A01 T01821009  RH  027%=      5-min Rain = 0
KHA2 132124Z 33008KT 18/M01 A2985 RMK A01 T01811012  RH  027%=      5-min Rain = 0
KHA2 132125Z 32010KT 18/M01 A2985 RMK A01 T01811005  RH  028%=      5-min Rain = 0
KHA2 132126Z 32009KT 18/M01 A2985 RMK A01 T01821005  RH  028%=      5-min Rain = 0
KHA2 132127Z 33009KT 18/M01 A2985 RMK A01 T01831010  RH  027%=      5-min Rain = 0
KHA2 132128Z 34009KT 18/M01 A2985 RMK A01 T01831005  RH  028%=      5-min Rain = 0
KHA2 132129Z 33008KT 18/M01 A2985 RMK A01 T01831009  RH  027%=      5-min Rain = 0
KHA2 132130Z 32007KT 18/M01 A2985 RMK A01 T01831011  RH  027%=      5-min Rain = 0
KHA2 132131Z 31008KT 18/M01 A2985 RMK A01 T01831007  RH  028%=      5-min Rain = 0
KHA2 132132Z 32009KT 18/M01 A2985 RMK A01 T01841009  RH  027%=      5-min Rain = 0
KHA2 132133Z 32011G16KT 18/M01 A2985 RMK A01 T01841009  RH  027%=      5-min Rain = 0
KHA2 132134Z 32013KT 18/M01 A2985 RMK A01 T01841008  RH  027%=      5-min Rain = 0
KHA2 132135Z 33011KT 18/M01 A2985 RMK A01 T01821007  RH  028%=      5-min Rain = 0
KHA2 132136Z 02010KT 18/M01 A2985 RMK A01 T01811007  RH  028%=      5-min Rain = 0
KHA2 132137Z 01006KT 18/M01 A2985 RMK A01 T01801014  RH  027%=      5-min Rain = 0
KHA2 132138Z 35005KT 18/M01 A2985 RMK A01 T01791011  RH  028%=      5-min Rain = 0
KHA2 132139Z 02006KT 18/M01 A2985 RMK A01 T01791010  RH  028%=      5-min Rain = 0
KHA2 132140Z 01008KT 18/M01 A2985 RMK A01 T01791013  RH  027%=      5-min Rain = 0
KHA2 132141Z 02008KT 18/M01 A2985 RMK A01 T01791013  RH  027%=      5-min Rain = 0
KHA2 132142Z 03007KT 18/M01 A2985 RMK A01 T01791009  RH  028%=      5-min Rain = 0
KHA2 132143Z 03008KT 18/M01 A2985 RMK A01 T01801008  RH  028%=      5-min Rain = 0
KHA2 132144Z 00008KT 18/M01 A2985 RMK A01 T01801006  RH  028%=      5-min Rain = 0
KHA2 132145Z 01007KT 18/M01 A2985 RMK A01 T01801006  RH  028%=      5-min Rain = 0
KHA2 132146Z 01009KT 18/M01 A2985 RMK A01 T01801008  RH  028%=      5-min Rain = 0
KHA2 132147Z 01008KT 18/M01 A2985 RMK A01 T01801008  RH  028%=      5-min Rain = 0
KHA2 132148Z 01008KT 18/M01 A2986 RMK A01 T01801010  RH  028%=      5-min Rain = 0
KHA2 132149Z 36008KT 18/M01 A2986 RMK A01 T01791008  RH  028%=      5-min Rain = 0
KHA2 132150Z 01006KT 18/M01 A2986 RMK A01 T01791010  RH  028%=      5-min Rain = 0
KHA2 132151Z 02007KT 18/M01 A2986 RMK A01 T01801008  RH  028%=      5-min Rain = 0
KHA2 132152Z 02007KT 18/M01 A2986 RMK A01 T01801008  RH  028%=      5-min Rain = 0
KHA2 132153Z 01007KT 18/M01 A2985 RMK A01 T01801010  RH  028%=      5-min Rain = 0
KHA2 132154Z 02007KT 18/M01 A2985 RMK A01 T01791012  RH  027%=      5-min Rain = 0
KHA2 132155Z 02007KT 18/M01 A2985 RMK A01 T01791009  RH  028%=      5-min Rain = 0
KHA2 132156Z 36008KT 18/M01 A2985 RMK A01 T01781008  RH  028%=      5-min Rain = 0
KHA2 132157Z 00008KT 18/M01 A2985 RMK A01 T01781010  RH  028%=      5-min Rain = 0
KHA2 132158Z 36006KT 18/M01 A2985 RMK A01 T01781014  RH  027%=      5-min Rain = 0
KHA2 132159Z 01005KT 18/M02 A2985 RMK A01 T01781016  RH  027%=      5-min Rain = 0
KHA2 132200Z 01006KT 18/M01 A2985 RMK A01 T01781010  RH  028%=      5-min Rain = 0
KHA2 132201Z 01006KT 18/M02 A2985 RMK A01 T01781015  RH  027%=      5-min Rain = 0
KHA2 132202Z 01006KT 18/M01 A2985 RMK A01 T01781008  RH  028%=      5-min Rain = 0
KHA2 132203Z 35007KT 18/M01 A2985 RMK A01 T01781007  RH  029%=      5-min Rain = 0
KHA2 132204Z 36007KT 18/M01 A2985 RMK A01 T01781012  RH  028%=      5-min Rain = 0
KHA2 132205Z 01006KT 18/M01 A2985 RMK A01 T01771010  RH  028%=      5-min Rain = 0
KHA2 132206Z 01006KT 18/M01 A2985 RMK A01 T01771013  RH  028%=      5-min Rain = 0
KHA2 132207Z 02007KT 18/M01 A2985 RMK A01 T01771007  RH  029%=      5-min Rain = 0
KHA2 132208Z 01008KT 18/M01 A2985 RMK A01 T01771006  RH  029%=      5-min Rain = 0
KHA2 132209Z 00006KT 18/M01 A2986 RMK A01 T01771010  RH  028%=      5-min Rain = 0
KHA2 132210Z 01006KT 18/M01 A2986 RMK A01 T01771007  RH  029%=      5-min Rain = 0
KHA2 132211Z 01005KT 18/M01 A2985 RMK A01 T01771012  RH  028%=      5-min Rain = 0
KHA2 132212Z 01004KT 18/M01 A2985 RMK A01 T01771014  RH  027%=      5-min Rain = 0
KHA2 132213Z 01003KT 18/M02 A2985 RMK A01 T01771015  RH  027%=      5-min Rain = 0
KHA2 132214Z 01004KT 18/M01 A2986 RMK A01 T01781008  RH  028%=      5-min Rain = 0
KHA2 132215Z 03006KT 18/M01 A2986 RMK A01 T01781010  RH  028%=      5-min Rain = 0
KHA2 132216Z 02006KT 18/M01 A2986 RMK A01 T01781011  RH  028%=      5-min Rain = 0
KHA2 132217Z 01006KT 18/M01 A2986 RMK A01 T01771013  RH  027%=      5-min Rain = 0
KHA2 132218Z 00006KT 18/M01 A2985 RMK A01 T01771010  RH  028%=      5-min Rain = 0
KHA2 132219Z 00006KT 18/M01 A2985 RMK A01 T01771010  RH  028%=      5-min Rain = 0
KHA2 132220Z 01004KT 18/M01 A2985 RMK A01 T01771009  RH  028%=      5-min Rain = 0
KHA2 132221Z 04004KT 18/M01 A2985 RMK A01 T01771006  RH  029%=      5-min Rain = 0
KHA2 132222Z 05004KT 18/M00 A2985 RMK A01 T01771001  RH  030%=      5-min Rain = 0
KHA2 132223Z 05006KT 18/M00 A2985 RMK A01 T01771004  RH  029%=      5-min Rain = 0
KHA2 132224Z 04006KT 18/M00 A2986 RMK A01 T01751003  RH  030%=      5-min Rain = 0
KHA2 132225Z 03007KT 17/M00 A2986 RMK A01 T01731001  RH  031%=      5-min Rain = 0
KHA2 132226Z 03006KT 17/M00 A2986 RMK A01 T01721004  RH  030%=      5-min Rain = 0
KHA2 132227Z 03005KT 17/00 A2986 RMK A01 T01710002  RH  032%=      5-min Rain = 0
KHA2 132228Z 03005KT 17/00 A2986 RMK A01 T01710003  RH  032%=      5-min Rain = 0
KHA2 132229Z 03005KT 17/00 A2986 RMK A01 T01700003  RH  032%=      5-min Rain = 0
KHA2 132230Z 03005KT 17/00 A2986 RMK A01 T01700003  RH  032%=      5-min Rain = 0
KHA2 132231Z 03004KT 17/00 A2987 RMK A01 T01700001  RH  032%=      5-min Rain = 0
KHA2 132232Z 03004KT 17/00 A2987 RMK A01 T01700002  RH  032%=      5-min Rain = 0
KHA2 132233Z 01006KT 17/00 A2987 RMK A01 T01690003  RH  033%=      5-min Rain = 0
KHA2 132234Z 36005KT 17/00 A2987 RMK A01 T01690003  RH  032%=      5-min Rain = 0
KHA2 132235Z 35005KT 17/01 A2987 RMK A01 T01690007  RH  034%=      5-min Rain = 0
KHA2 132236Z 00004KT 17/01 A2987 RMK A01 T01690006  RH  033%=      5-min Rain = 0
KHA2 132237Z 02003KT 17/00 A2987 RMK A01 T01690001  RH  032%=      5-min Rain = 0
KHA2 132238Z 03003KT 17/00 A2987 RMK A01 T01690003  RH  032%=      5-min Rain = 0
KHA2 132239Z 04003KT 17/00 A2987 RMK A01 T01690004  RH  033%=      5-min Rain = 0
KHA2 132240Z 04002KT 17/00 A2987 RMK A01 T01680003  RH  033%=      5-min Rain = 0
KHA2 132241Z 03002KT 17/01 A2987 RMK A01 T01680006  RH  033%=      5-min Rain = 0
KHA2 132242Z 05004KT 17/01 A2987 RMK A01 T01680008  RH  034%=      5-min Rain = 0
KHA2 132243Z 05005KT 17/01 A2987 RMK A01 T01680007  RH  034%=      5-min Rain = 0
KHA2 132244Z 05005KT 17/00 A2987 RMK A01 T01660004  RH  033%=      5-min Rain = 0
KHA2 132245Z 05006KT 17/00 A2987 RMK A01 T01650002  RH  033%=      5-min Rain = 0
KHA2 132246Z 05006KT 16/00 A2987 RMK A01 T01640002  RH  033%=      5-min Rain = 0
KHA2 132247Z 04006KT 16/00 A2987 RMK A01 T01630003  RH  034%=      5-min Rain = 0
KHA2 132248Z 02008KT 16/00 A2987 RMK A01 T01620004  RH  034%=      5-min Rain = 0
KHA2 132249Z 01007KT 16/00 A2987 RMK A01 T01600003  RH  034%=      5-min Rain = 0
KHA2 132250Z 01006KT 16/01 A2987 RMK A01 T01590006  RH  035%=      5-min Rain = 0
KHA2 132251Z 02006KT 16/01 A2987 RMK A01 T01580006  RH  036%=      5-min Rain = 0
KHA2 132252Z 01004KT 16/01 A2987 RMK A01 T01570005  RH  036%=      5-min Rain = 0
KHA2 132253Z 00003KT 16/01 A2987 RMK A01 T01570009  RH  037%=      5-min Rain = 0
KHA2 132254Z 03004KT 16/01 A2987 RMK A01 T01560009  RH  037%=      5-min Rain = 0
KHA2 132255Z 03005KT 16/01 A2987 RMK A01 T01560007  RH  036%=      5-min Rain = 0
KHA2 132256Z 02005KT 16/01 A2987 RMK A01 T01550007  RH  036%=      5-min Rain = 0
KHA2 132257Z 02004KT 15/01 A2987 RMK A01 T01530010  RH  038%=      5-min Rain = 0
KHA2 132258Z 03003KT 15/01 A2987 RMK A01 T01520011  RH  038%=      5-min Rain = 0
KHA2 132259Z 03004KT 15/01 A2986 RMK A01 T01520012  RH  039%=      5-min Rain = 0
KHA2 132300Z 03004KT 15/01 A2986 RMK A01 T01520011  RH  038%=      5-min Rain = 0
KHA2 132301Z 03004KT 15/01 A2986 RMK A01 T01510010  RH  038%=      5-min Rain = 0
KHA2 132302Z 02004KT 15/01 A2986 RMK A01 T01490009  RH  038%=      5-min Rain = 0
KHA2 132303Z 01004KT 15/01 A2986 RMK A01 T01480009  RH  039%=      5-min Rain = 0
KHA2 132304Z 02003KT 15/01 A2987 RMK A01 T01480009  RH  039%=      5-min Rain = 0
KHA2 132305Z 03004KT 15/01 A2987 RMK A01 T01480009  RH  039%=      5-min Rain = 0
KHA2 132306Z 02004KT 15/01 A2987 RMK A01 T01480009  RH  039%=      5-min Rain = 0
KHA2 132307Z 03004KT 15/01 A2987 RMK A01 T01480006  RH  038%=      5-min Rain = 0
KHA2 132308Z 03005KT 15/00 A2987 RMK A01 T01490004  RH  037%=      5-min Rain = 0
KHA2 132309Z 03004KT 15/01 A2987 RMK A01 T01490008  RH  038%=      5-min Rain = 0
KHA2 132310Z 02004KT 15/01 A2987 RMK A01 T01480009  RH  039%=      5-min Rain = 0
KHA2 132311Z 02004KT 15/01 A2987 RMK A01 T01460009  RH  039%=      5-min Rain = 0
KHA2 132312Z 01004KT 14/01 A2987 RMK A01 T01440010  RH  040%=      5-min Rain = 0
KHA2 132313Z 01005KT 14/01 A2987 RMK A01 T01440007  RH  039%=      5-min Rain = 0
KHA2 132314Z 02004KT 14/00 A2987 RMK A01 T01430002  RH  038%=      5-min Rain = 0
KHA2 132315Z 03003KT 14/00 A2987 RMK A01 T01440001  RH  037%=      5-min Rain = 0
KHA2 132316Z 04004KT 14/00 A2986 RMK A01 T01440001  RH  037%=      5-min Rain = 0
KHA2 132317Z 04004KT 15/00 A2986 RMK A01 T014500-0  RH  037%=      5-min Rain = 0
KHA2 132318Z 04005KT 15/00 A2986 RMK A01 T014600-0  RH  037%=      5-min Rain = 0
KHA2 132319Z 05004KT 15/00 A2986 RMK A01 T014600-0  RH  037%=      5-min Rain = 0
KHA2 132320Z 05005KT 15/M00 A2986 RMK A01 T01451001  RH  037%=      5-min Rain = 0
KHA2 132321Z 05006KT 15/M00 A2987 RMK A01 T01451001  RH  037%=      5-min Rain = 0
KHA2 132322Z 05008KT 14/00 A2987 RMK A01 T014200-0  RH  038%=      5-min Rain = 0
KHA2 132323Z 05008KT 14/M00 A2987 RMK A01 T01381001  RH  038%=      5-min Rain = 0
KHA2 132324Z 05007KT 14/M00 A2987 RMK A01 T01371002  RH  039%=      5-min Rain = 0
KHA2 132325Z 06007KT 14/00 A2987 RMK A01 T01360000  RH  039%=      5-min Rain = 0
KHA2 132326Z 05008KT 13/00 A2987 RMK A01 T01340000  RH  040%=      5-min Rain = 0
KHA2 132327Z 05007KT 13/M00 A2987 RMK A01 T01321001  RH  040%=      5-min Rain = 0
KHA2 132328Z 05006KT 13/M00 A2987 RMK A01 T01321004  RH  039%=      5-min Rain = 0
KHA2 132329Z 05006KT 13/00 A2987 RMK A01 T01310001  RH  041%=      5-min Rain = 0
KHA2 132330Z 05005KT 13/00 A2987 RMK A01 T01290001  RH  041%=      5-min Rain = 0
KHA2 132331Z 06006KT 13/00 A2987 RMK A01 T01280001  RH  042%=      5-min Rain = 0
KHA2 132332Z 06006KT 13/00 A2987 RMK A01 T01290001  RH  041%=      5-min Rain = 0
KHA2 132333Z 06006KT 13/00 A2987 RMK A01 T01290002  RH  042%=      5-min Rain = 0
KHA2 132334Z 06007KT 13/01 A2987 RMK A01 T01270009  RH  044%=      5-min Rain = 0
KHA2 132335Z 06006KT 13/01 A2987 RMK A01 T01250011  RH  046%=      5-min Rain = 0
KHA2 132336Z 06006KT 13/01 A2987 RMK A01 T01250011  RH  046%=      5-min Rain = 0
KHA2 132337Z 06006KT 13/01 A2987 RMK A01 T01250010  RH  045%=      5-min Rain = 0
KHA2 132338Z 05005KT 13/01 A2988 RMK A01 T01250006  RH  044%=      5-min Rain = 0
KHA2 132339Z 05005KT 12/00 A2988 RMK A01 T01230002  RH  043%=      5-min Rain = 0
KHA2 132340Z 05005KT 12/M01 A2988 RMK A01 T01231006  RH  041%=      5-min Rain = 0
KHA2 132341Z 05007KT 13/M01 A2988 RMK A01 T01251008  RH  040%=      5-min Rain = 0
KHA2 132342Z 05006KT 12/M01 A2988 RMK A01 T01241008  RH  040%=      5-min Rain = 0
KHA2 132343Z 06006KT 12/M01 A2988 RMK A01 T01241005  RH  041%=      5-min Rain = 0
KHA2 132344Z 06006KT 12/M00 A2988 RMK A01 T01231002  RH  042%=      5-min Rain = 0
KHA2 132345Z 06006KT 12/M00 A2988 RMK A01 T01241002  RH  042%=      5-min Rain = 0
KHA2 132346Z 06007KT 12/00 A2988 RMK A01 T01240001  RH  043%=      5-min Rain = 0
KHA2 132347Z 06007KT 12/00 A2988 RMK A01 T012200-0  RH  043%=      5-min Rain = 0
KHA2 132348Z 06007KT 12/M01 A2988 RMK A01 T01201005  RH  042%=      5-min Rain = 0
KHA2 132349Z 06007KT 12/M01 A2988 RMK A01 T01171009  RH  042%=      5-min Rain = 0
KHA2 132350Z 06007KT 11/M01 A2988 RMK A01 T01141011  RH  042%=      5-min Rain = 0
KHA2 132351Z 06007KT 11/M01 A2988 RMK A01 T01111009  RH  044%=      5-min Rain = 0
KHA2 132352Z 06007KT 11/M01 A2988 RMK A01 T01101006  RH  045%=      5-min Rain = 0
KHA2 132353Z 06006KT 11/M01 A2988 RMK A01 T01131005  RH  044%=      5-min Rain = 0
KHA2 132354Z 06006KT 12/M01 A2988 RMK A01 T01151006  RH  043%=      5-min Rain = 0
KHA2 132355Z 06005KT 11/M01 A2988 RMK A01 T01141007  RH  043%=      5-min Rain = 0
KHA2 132356Z 05004KT 11/M01 A2988 RMK A01 T01101011  RH  043%=      5-min Rain = 0
KHA2 132357Z 06005KT 11/M01 A2988 RMK A01 T01081013  RH  043%=      5-min Rain = 0
KHA2 132358Z 06005KT 11/M01 A2988 RMK A01 T01081014  RH  043%=      5-min Rain = 0
KHA2 132359Z 05004KT 11/M02 A2988 RMK A01 T01081015  RH  042%=      5-min Rain = 0
KHA2 140000Z 05005KT 11/M02 A2988 RMK A01 T01091015  RH  042%=      5-min Rain = 0
KHA2 140001Z 05005KT 11/M02 A2988 RMK A01 T01091015  RH  042%=      5-min Rain = 0
KHA2 140002Z 05005KT 11/M02 A2988 RMK A01 T01091016  RH  042%=      5-min Rain = 0
KHA2 140003Z 05005KT 11/M02 A2988 RMK A01 T01101017  RH  041%=      5-min Rain = 0
KHA2 140004Z 05005KT 11/M02 A2989 RMK A01 T01091017  RH  041%=      5-min Rain = 0
KHA2 140005Z 05005KT 11/M02 A2989 RMK A01 T01081018  RH  041%=      5-min Rain = 0
KHA2 140006Z 04005KT 11/M02 A2989 RMK A01 T01101017  RH  041%=      5-min Rain = 0
KHA2 140007Z 04005KT 11/M02 A2989 RMK A01 T01101018  RH  041%=      5-min Rain = 0
KHA2 140008Z 04005KT 11/M02 A2989 RMK A01 T01111017  RH  041%=      5-min Rain = 0
KHA2 140009Z 04006KT 11/M02 A2989 RMK A01 T01101015  RH  042%=      5-min Rain = 0
KHA2 140010Z 04006KT 11/M02 A2989 RMK A01 T01091015  RH  042%=      5-min Rain = 0
KHA2 140011Z 05007KT 11/M02 A2989 RMK A01 T01071015  RH  042%=      5-min Rain = 0
KHA2 140012Z 04006KT 11/M02 A2989 RMK A01 T01071016  RH  042%=      5-min Rain = 0
KHA2 140013Z 05006KT 11/M02 A2989 RMK A01 T01071016  RH  042%=      5-min Rain = 0
KHA2 140014Z 05006KT 11/M02 A2989 RMK A01 T01071016  RH  042%=      5-min Rain = 0
KHA2 140015Z 05007KT 11/M02 A2989 RMK A01 T01081016  RH  042%=      5-min Rain = 0
KHA2 140016Z 05007KT 11/M02 A2989 RMK A01 T01081016  RH  042%=      5-min Rain = 0
KHA2 140017Z 05007KT 11/M02 A2989 RMK A01 T01091016  RH  042%=      5-min Rain = 0
KHA2 140018Z 05007KT 11/M02 A2989 RMK A01 T01091015  RH  042%=      5-min Rain = 0
KHA2 140019Z 06007KT 11/M02 A2989 RMK A01 T01071015  RH  043%=      5-min Rain = 0
KHA2 140020Z 06007KT 10/M01 A2989 RMK A01 T01041012  RH  044%=      5-min Rain = 0
KHA2 140021Z 07007KT 10/M01 A2989 RMK A01 T01041008  RH  046%=      5-min Rain = 0
KHA2 140022Z 08006KT 10/00 A2989 RMK A01 T01040001  RH  049%=      5-min Rain = 0
KHA2 140023Z 08006KT 11/00 A2989 RMK A01 T01050000  RH  048%=      5-min Rain = 0
KHA2 140024Z 08006KT 10/M00 A2989 RMK A01 T01041004  RH  047%=      5-min Rain = 0
KHA2 140025Z 08005KT 10/M01 A2989 RMK A01 T01031005  RH  047%=      5-min Rain = 0
KHA2 140026Z 08004KT 10/M01 A2989 RMK A01 T01021005  RH  047%=      5-min Rain = 0
KHA2 140027Z 06003KT 10/M01 A2989 RMK A01 T01011007  RH  047%=      5-min Rain = 0
KHA2 140028Z 04003KT 10/M01 A2989 RMK A01 T01001008  RH  047%=      5-min Rain = 0
KHA2 140029Z 02003KT 10/M01 A2989 RMK A01 T00971013  RH  046%=      5-min Rain = 0
KHA2 140030Z 01003KT 09/M01 A2989 RMK A01 T00931014  RH  047%=      5-min Rain = 0
KHA2 140031Z 02004KT 09/M02 A2988 RMK A01 T00931015  RH  047%=      5-min Rain = 0
KHA2 140032Z 03003KT 10/M02 A2988 RMK A01 T00971016  RH  045%=      5-min Rain = 0
KHA2 140033Z 05003KT 10/M02 A2988 RMK A01 T01021018  RH  043%=      5-min Rain = 0
KHA2 140034Z 06003KT 11/M02 A2988 RMK A01 T01051020  RH  042%=      5-min Rain = 0
KHA2 140035Z 07004KT 11/M02 A2988 RMK A01 T01071020  RH  041%=      5-min Rain = 0
KHA2 140036Z 05003KT 11/M02 A2988 RMK A01 T01081020  RH  041%=      5-min Rain = 0
KHA2 140037Z 05003KT 11/M02 A2988 RMK A01 T01081020  RH  041%=      5-min Rain = 0
KHA2 140038Z 05003KT 11/M02 A2988 RMK A01 T01081020  RH  041%=      5-min Rain = 0
KHA2 140039Z 06003KT 11/M02 A2988 RMK A01 T01081021  RH  040%=      5-min Rain = 0
KHA2 140040Z 07004KT 11/M02 A2988 RMK A01 T01071022  RH  041%=      5-min Rain = 0
KHA2 140041Z 08004KT 11/M02 A2989 RMK A01 T01061023  RH  041%=      5-min Rain = 0
KHA2 140042Z 09004KT 11/M02 A2989 RMK A01 T01051022  RH  041%=      5-min Rain = 0
KHA2 140043Z 09005KT 10/M02 A2989 RMK A01 T01041019  RH  042%=      5-min Rain = 0
KHA2 140044Z 09004KT 10/M02 A2989 RMK A01 T01031019  RH  042%=      5-min Rain = 0
KHA2 140045Z 09005KT 10/M02 A2989 RMK A01 T01021018  RH  043%=      5-min Rain = 0
KHA2 140046Z 08004KT 10/M01 A2989 RMK A01 T01011014  RH  045%=      5-min Rain = 0
KHA2 140047Z 08003KT 10/M01 A2989 RMK A01 T01001012  RH  045%=      5-min Rain = 0
KHA2 140048Z 07002KT 10/M01 A2989 RMK A01 T00971014  RH  046%=      5-min Rain = 0
KHA2 140049Z 06001KT 09/M02 A2989 RMK A01 T00921019  RH  046%=      5-min Rain = 0
KHA2 140050Z 05002KT 09/M02 A299 RMK A01 T00911020  RH  046%=      5-min Rain = 0
KHA2 140051Z 05001KT 09/M02 A299 RMK A01 T00921021  RH  045%=      5-min Rain = 0
KHA2 140052Z 02001KT 09/M02 A299 RMK A01 T00941022  RH  044%=      5-min Rain = 0
KHA2 140053Z 36000KT 10/M02 A299 RMK A01 T00961022  RH  043%=      5-min Rain = 0
KHA2 140054Z 00000KT 10/M02 A299 RMK A01 T00981022  RH  043%=      5-min Rain = 0
KHA2 140055Z 09000KT 10/M02 A299 RMK A01 T00981022  RH  043%=      5-min Rain = 0
KHA2 140056Z 10001KT 10/M02 A2989 RMK A01 T00971022  RH  043%=      5-min Rain = 0
KHA2 140057Z 10002KT 10/M02 A2989 RMK A01 T00971023  RH  043%=      5-min Rain = 0
KHA2 140058Z 10002KT 10/M02 A299 RMK A01 T00971023  RH  043%=      5-min Rain = 0
KHA2 140059Z 08002KT 10/M02 A299 RMK A01 T00971024  RH  043%=      5-min Rain = 0
KHA2 140100Z 06002KT 10/M02 A299 RMK A01 T00971023  RH  043%=      5-min Rain = 0
KHA2 140101Z 02002KT 10/M02 A299 RMK A01 T00981023  RH  043%=      5-min Rain = 0
KHA2 140102Z 02002KT 10/M02 A299 RMK A01 T00981023  RH  043%=      5-min Rain = 0
KHA2 140103Z 07002KT 10/M02 A299 RMK A01 T01001023  RH  042%=      5-min Rain = 0
KHA2 140104Z 09003KT 10/M02 A299 RMK A01 T01001024  RH  042%=      5-min Rain = 0
KHA2 140105Z 10005KT 10/M02 A299 RMK A01 T01011024  RH  042%=      5-min Rain = 0
KHA2 140106Z 11006KT 10/M02 A299 RMK A01 T01031023  RH  041%=      5-min Rain = 0
KHA2 140107Z 11007KT 10/M02 A299 RMK A01 T01041022  RH  041%=      5-min Rain = 0
KHA2 140108Z 11007KT 10/M02 A299 RMK A01 T01031018  RH  043%=      5-min Rain = 0
KHA2 140109Z 10007KT 10/M02 A299 RMK A01 T00971020  RH  044%=      5-min Rain = 0
KHA2 140110Z 11005KT 09/M02 A299 RMK A01 T00911021  RH  045%=      5-min Rain = 0
KHA2 140111Z 06003KT 09/M02 A2991 RMK A01 T00861020  RH  047%=      5-min Rain = 0
KHA2 140112Z 30007KT 08/M02 A2991 RMK A01 T00781023  RH  049%=      5-min Rain = 0
KHA2 140113Z 31008KT 08/M02 A2991 RMK A01 T00761022  RH  050%=      5-min Rain = 0
KHA2 140114Z 30007KT 08/M02 A2991 RMK A01 T00821021  RH  048%=      5-min Rain = 0
KHA2 140115Z 31004KT 09/M02 A2992 RMK A01 T00881021  RH  046%=      5-min Rain = 0
KHA2 140116Z 34004KT 09/M02 A2992 RMK A01 T00911022  RH  045%=      5-min Rain = 0
KHA2 140117Z 05002KT 09/M02 A2992 RMK A01 T00921024  RH  044%=      5-min Rain = 0
KHA2 140118Z 05001KT 09/M03 A2992 RMK A01 T00941025  RH  043%=      5-min Rain = 0
KHA2 140119Z 05002KT 10/M02 A2992 RMK A01 T00961024  RH  043%=      5-min Rain = 0
KHA2 140120Z 03002KT 10/M02 A2992 RMK A01 T00981024  RH  043%=      5-min Rain = 0
KHA2 140121Z 05002KT 10/M03 A2992 RMK A01 T00981025  RH  042%=      5-min Rain = 0
KHA2 140122Z 07002KT 10/M02 A2992 RMK A01 T00991024  RH  042%=      5-min Rain = 0
KHA2 140123Z 10003KT 10/M03 A2992 RMK A01 T00991025  RH  042%=      5-min Rain = 0
KHA2 140124Z 11004KT 10/M02 A2992 RMK A01 T01011022  RH  042%=      5-min Rain = 0
KHA2 140125Z 11004KT 10/M02 A2992 RMK A01 T01021023  RH  042%=      5-min Rain = 0
KHA2 140126Z 10003KT 10/M02 A2992 RMK A01 T01031022  RH  042%=      5-min Rain = 0
KHA2 140127Z 10003KT 10/M02 A2992 RMK A01 T01031023  RH  041%=      5-min Rain = 0
KHA2 140128Z 09003KT 10/M03 A2992 RMK A01 T01031025  RH  041%=      5-min Rain = 0
KHA2 140129Z 05002KT 10/M02 A2992 RMK A01 T01031020  RH  042%=      5-min Rain = 0
KHA2 140130Z 35004KT 10/M02 A2992 RMK A01 T01001017  RH  044%=      5-min Rain = 0
KHA2 140131Z 35007KT 09/M03 A2992 RMK A01 T00941025  RH  043%=      5-min Rain = 0
KHA2 140132Z 36006KT 09/M03 A2992 RMK A01 T00871025  RH  045%=      5-min Rain = 0
KHA2 140133Z 01004KT 08/M02 A2992 RMK A01 T00841024  RH  047%=      5-min Rain = 0
KHA2 140134Z 03002KT 08/M02 A2992 RMK A01 T00831023  RH  047%=      5-min Rain = 0
KHA2 140135Z 04002KT 08/M02 A2992 RMK A01 T00821023  RH  047%=      5-min Rain = 0
KHA2 140136Z 05002KT 08/M02 A2992 RMK A01 T00821022  RH  048%=      5-min Rain = 0
KHA2 140137Z 06002KT 08/M02 A2992 RMK A01 T00811021  RH  048%=      5-min Rain = 0
KHA2 140138Z 07002KT 08/M02 A2992 RMK A01 T00801021  RH  049%=      5-min Rain = 0
KHA2 140139Z 06001KT 08/M02 A2992 RMK A01 T00781020  RH  050%=      5-min Rain = 0
KHA2 140140Z 34000KT 08/M02 A2992 RMK A01 T00771020  RH  050%=      5-min Rain = 0
KHA2 140141Z 31001KT 08/M02 A2992 RMK A01 T00761020  RH  051%=      5-min Rain = 0
KHA2 140142Z 31001KT 08/M02 A2992 RMK A01 T00761021  RH  050%=      5-min Rain = 0
KHA2 140143Z 31000KT 08/M02 A2993 RMK A01 T00811022  RH  048%=      5-min Rain = 0
KHA2 140144Z 00000KT 09/M02 A2993 RMK A01 T00881022  RH  046%=      5-min Rain = 0
KHA2 140145Z 00000KT 09/M02 A2993 RMK A01 T00911021  RH  045%=      5-min Rain = 0
KHA2 140146Z 00000KT 09/M02 A2993 RMK A01 T00891021  RH  046%=      5-min Rain = 0
KHA2 140147Z 00000KT 09/M02 A2992 RMK A01 T00861019  RH  048%=      5-min Rain = 0
KHA2 140148Z 00000KT 08/M02 A2992 RMK A01 T00831019  RH  049%=      5-min Rain = 0
KHA2 140149Z 00000KT 08/M02 A2992 RMK A01 T00821018  RH  049%=      5-min Rain = 0
KHA2 140150Z 00000KT 08/M02 A2992 RMK A01 T00821021  RH  048%=      5-min Rain = 0
KHA2 140151Z 00000KT 08/M02 A2992 RMK A01 T00841022  RH  047%=      5-min Rain = 0
KHA2 140152Z 00000KT 09/M02 A2992 RMK A01 T00871023  RH  046%=      5-min Rain = 0
KHA2 140153Z 36000KT 09/M02 A2992 RMK A01 T00891023  RH  045%=      5-min Rain = 0
KHA2 140154Z 15001KT 09/M02 A2992 RMK A01 T00911023  RH  045%=      5-min Rain = 0
KHA2 140155Z 15000KT 09/M02 A2993 RMK A01 T00921024  RH  044%=      5-min Rain = 0
KHA2 140156Z 00000KT 09/M02 A2993 RMK A01 T00931024  RH  044%=      5-min Rain = 0
KHA2 140157Z 00000KT 09/M02 A2993 RMK A01 T00941024  RH  044%=      5-min Rain = 0
KHA2 140158Z 23002KT 09/M02 A2993 RMK A01 T00931024  RH  044%=      5-min Rain = 0
KHA2 140159Z 23003KT 09/M02 A2993 RMK A01 T00921022  RH  045%=      5-min Rain = 0
KHA2 140200Z 23003KT 09/M02 A2993 RMK A01 T00881020  RH  047%=      5-min Rain = 0
KHA2 140201Z 23004KT 08/M02 A2992 RMK A01 T00841020  RH  048%=      5-min Rain = 0
KHA2 140202Z 22004KT 08/M02 A2992 RMK A01 T00801019  RH  050%=      5-min Rain = 0
KHA2 140203Z 20004KT 08/M02 A2992 RMK A01 T00761019  RH  051%=      5-min Rain = 0
KHA2 140204Z 19004KT 07/M02 A2992 RMK A01 T00711019  RH  053%=      5-min Rain = 0
KHA2 140205Z 19004KT 07/M02 A2992 RMK A01 T00681019  RH  054%=      5-min Rain = 0
KHA2 140206Z 19005KT 07/M02 A2992 RMK A01 T00661018  RH  055%=      5-min Rain = 0
KHA2 140207Z 18005KT 06/M02 A2992 RMK A01 T00641018  RH  056%=      5-min Rain = 0
KHA2 140208Z 18006KT 06/M02 A2992 RMK A01 T00641018  RH  056%=      5-min Rain = 0
KHA2 140209Z 19006KT 06/M02 A2992 RMK A01 T00641018  RH  056%=      5-min Rain = 0
KHA2 140210Z 20006KT 06/M02 A2992 RMK A01 T00631018  RH  056%=      5-min Rain = 0
KHA2 140211Z 21006KT 06/M02 A2992 RMK A01 T00631018  RH  056%=      5-min Rain = 0
KHA2 140212Z 25004KT 06/M02 A2993 RMK A01 T00621017  RH  057%=      5-min Rain = 0
KHA2 140213Z 28005KT 06/M02 A2993 RMK A01 T00611016  RH  058%=      5-min Rain = 0
KHA2 140214Z 27005KT 06/M02 A2993 RMK A01 T00611017  RH  057%=      5-min Rain = 0
KHA2 140215Z 25004KT 07/M02 A2993 RMK A01 T00661018  RH  055%=      5-min Rain = 0
KHA2 140216Z 24003KT 07/M02 A2992 RMK A01 T00701019  RH  053%=      5-min Rain = 0
KHA2 140217Z 23003KT 07/M02 A2992 RMK A01 T00741020  RH  051%=      5-min Rain = 0
KHA2 140218Z 21004KT 08/M02 A2992 RMK A01 T00771020  RH  051%=      5-min Rain = 0
KHA2 140219Z 21003KT 08/M02 A2993 RMK A01 T00781020  RH  050%=      5-min Rain = 0
KHA2 140220Z 22003KT 08/M02 A2993 RMK A01 T00801021  RH  049%=      5-min Rain = 0
KHA2 140221Z 24004KT 08/M02 A2993 RMK A01 T00821020  RH  048%=      5-min Rain = 0
KHA2 140222Z 27006KT 08/M02 A2993 RMK A01 T00801019  RH  050%=      5-min Rain = 0
KHA2 140223Z 28008KT 08/M02 A2993 RMK A01 T00751019  RH  051%=      5-min Rain = 0
KHA2 140224Z 27007KT 07/M02 A2993 RMK A01 T00731019  RH  052%=      5-min Rain = 0
KHA2 140225Z 25005KT 07/M02 A2993 RMK A01 T00731018  RH  052%=      5-min Rain = 0
KHA2 140226Z 23004KT 07/M02 A2993 RMK A01 T00741018  RH  052%=      5-min Rain = 0
KHA2 140227Z 21004KT 08/M02 A2993 RMK A01 T00751018  RH  052%=      5-min Rain = 0
KHA2 140228Z 20005KT 08/M02 A2992 RMK A01 T00761019  RH  051%=      5-min Rain = 0
KHA2 140229Z 20005KT 08/M02 A2992 RMK A01 T00761019  RH  051%=      5-min Rain = 0
KHA2 140230Z 21005KT 08/M02 A2992 RMK A01 T00761019  RH  051%=      5-min Rain = 0
KHA2 140231Z 22006KT 08/M02 A2992 RMK A01 T00771019  RH  051%=      5-min Rain = 0
KHA2 140232Z 21005KT 08/M02 A2992 RMK A01 T00761019  RH  051%=      5-min Rain = 0
KHA2 140233Z 22006KT 08/M02 A2992 RMK A01 T00751018  RH  052%=      5-min Rain = 0
KHA2 140234Z 24006KT 07/M02 A2992 RMK A01 T00741017  RH  052%=      5-min Rain = 0
KHA2 140235Z 26007KT 07/M02 A2991 RMK A01 T00731017  RH  053%=      5-min Rain = 0
KHA2 140236Z 26007KT 07/M02 A2991 RMK A01 T00731018  RH  053%=      5-min Rain = 0
KHA2 140237Z 25006KT 07/M02 A2991 RMK A01 T00741018  RH  052%=      5-min Rain = 0
KHA2 140238Z 24005KT 08/M02 A2991 RMK A01 T00751018  RH  051%=      5-min Rain = 0
KHA2 140239Z 23006KT 08/M02 A2991 RMK A01 T00761018  RH  051%=      5-min Rain = 0
KHA2 140240Z 24007KT 08/M02 A2991 RMK A01 T00751019  RH  051%=      5-min Rain = 0
KHA2 140241Z 25007KT 08/M02 A2991 RMK A01 T00751018  RH  052%=      5-min Rain = 0
KHA2 140242Z 26006KT 07/M02 A2991 RMK A01 T00741018  RH  052%=      5-min Rain = 0
KHA2 140243Z 26006KT 07/M02 A2992 RMK A01 T00741017  RH  053%=      5-min Rain = 0
KHA2 140244Z 26006KT 07/M02 A2992 RMK A01 T00731017  RH  053%=      5-min Rain = 0
KHA2 140245Z 26007KT 07/M02 A2992 RMK A01 T00731018  RH  052%=      5-min Rain = 0
KHA2 140246Z 25007KT 07/M02 A2992 RMK A01 T00731018  RH  052%=      5-min Rain = 0
KHA2 140247Z 25006KT 07/M02 A2991 RMK A01 T00731019  RH  052%=      5-min Rain = 0
KHA2 140248Z 25007KT 07/M02 A2992 RMK A01 T00731020  RH  052%=      5-min Rain = 0
KHA2 140249Z 25007KT 07/M02 A2992 RMK A01 T00741021  RH  051%=      5-min Rain = 0
KHA2 140250Z 26006KT 07/M02 A2993 RMK A01 T00741021  RH  051%=      5-min Rain = 0
KHA2 140251Z 25006KT 07/M02 A2993 RMK A01 T00721021  RH  052%=      5-min Rain = 0
KHA2 140252Z 24006KT 07/M02 A2992 RMK A01 T00721021  RH  052%=      5-min Rain = 0
KHA2 140253Z 24006KT 07/M02 A2993 RMK A01 T00741021  RH  051%=      5-min Rain = 0
KHA2 140254Z 25006KT 07/M02 A2993 RMK A01 T00731022  RH  051%=      5-min Rain = 0
KHA2 140255Z 26007KT 07/M02 A2993 RMK A01 T00741022  RH  051%=      5-min Rain = 0
KHA2 140256Z 26008KT 07/M02 A2994 RMK A01 T00741022  RH  051%=      5-min Rain = 0
KHA2 140257Z 26008KT 07/M02 A2994 RMK A01 T00741022  RH  051%=      5-min Rain = 0
KHA2 140258Z 26008KT 07/M02 A2994 RMK A01 T00741022  RH  051%=      5-min Rain = 0
KHA2 140259Z 26008KT 07/M02 A2994 RMK A01 T00741022  RH  050%=      5-min Rain = 0
KHA2 140300Z 26008KT 07/M02 A2994 RMK A01 T00741022  RH  051%=      5-min Rain = 0
KHA2 140301Z 26007KT 07/M02 A2994 RMK A01 T00741022  RH  051%=      5-min Rain = 0
KHA2 140302Z 25007KT 07/M02 A2994 RMK A01 T00731022  RH  051%=      5-min Rain = 0
KHA2 140303Z 26006KT 07/M02 A2994 RMK A01 T00721022  RH  051%=      5-min Rain = 0
KHA2 140304Z 27006KT 07/M02 A2994 RMK A01 T00721022  RH  051%=      5-min Rain = 0
KHA2 140305Z 30005KT 07/M02 A2995 RMK A01 T00721022  RH  051%=      5-min Rain = 0
KHA2 140306Z 01008G14KT 07/M02 A2995 RMK A01 T00691024  RH  051%=      5-min Rain = 0
KHA2 140307Z 02017KT 06/M03 A2995 RMK A01 T00581026  RH  055%=      5-min Rain = 0
KHA2 140308Z 02014KT 05/M02 A2996 RMK A01 T00511024  RH  059%=      5-min Rain = 0
KHA2 140309Z 02012KT 05/M02 A2996 RMK A01 T00541019  RH  060%=      5-min Rain = 0
KHA2 140310Z 03013KT 06/M02 A2995 RMK A01 T00611017  RH  057%=      5-min Rain = 0
KHA2 140311Z 02007KT 08/M02 A2995 RMK A01 T00831016  RH  050%=      5-min Rain = 0
KHA2 140312Z 02004KT 10/M02 A2995 RMK A01 T00961020  RH  044%=      5-min Rain = 0
KHA2 140313Z 03005KT 10/M02 A2995 RMK A01 T00991021  RH  043%=      5-min Rain = 0
KHA2 140314Z 03006KT 10/M02 A2995 RMK A01 T00961022  RH  043%=      5-min Rain = 0
KHA2 140315Z 02006KT 09/M02 A2995 RMK A01 T00921021  RH  045%=      5-min Rain = 0
KHA2 140316Z 02005KT 09/M02 A2995 RMK A01 T00871021  RH  047%=      5-min Rain = 0
KHA2 140317Z 02004KT 08/M02 A2995 RMK A01 T00831021  RH  048%=      5-min Rain = 0
KHA2 140318Z 03005KT 08/M02 A2995 RMK A01 T00811020  RH  049%=      5-min Rain = 0
KHA2 140319Z 03005KT 08/M02 A2995 RMK A01 T00791021  RH  049%=      5-min Rain = 0
KHA2 140320Z 03005KT 08/M02 A2995 RMK A01 T00771021  RH  050%=      5-min Rain = 0
KHA2 140321Z 02003KT 08/M02 A2995 RMK A01 T00761020  RH  051%=      5-min Rain = 0
KHA2 140322Z 01003KT 07/M02 A2995 RMK A01 T00731020  RH  052%=      5-min Rain = 0
KHA2 140323Z 36003KT 07/M02 A2996 RMK A01 T00711021  RH  052%=      5-min Rain = 0
KHA2 140324Z 35005KT 07/M02 A2996 RMK A01 T00681023  RH  052%=      5-min Rain = 0
KHA2 140325Z 34006KT 07/M02 A2996 RMK A01 T00661024  RH  053%=      5-min Rain = 0
KHA2 140326Z 35009KT 06/M03 A2996 RMK A01 T00621025  RH  054%=      5-min Rain = 0
KHA2 140327Z 36006KT 06/M03 A2996 RMK A01 T00581025  RH  055%=      5-min Rain = 0
KHA2 140328Z 01005KT 06/M02 A2996 RMK A01 T00581024  RH  056%=      5-min Rain = 0
KHA2 140329Z 02005KT 06/M02 A2996 RMK A01 T00591024  RH  055%=      5-min Rain = 0
KHA2 140330Z 02005KT 06/M02 A2996 RMK A01 T00611023  RH  055%=      5-min Rain = 0
KHA2 140331Z 03005KT 06/M02 A2996 RMK A01 T00621022  RH  055%=      5-min Rain = 0
KHA2 140332Z 03007KT 06/M02 A2996 RMK A01 T00641020  RH  055%=      5-min Rain = 0
KHA2 140333Z 03007KT 07/M02 A2995 RMK A01 T00651020  RH  054%=      5-min Rain = 0
KHA2 140334Z 03006KT 07/M02 A2995 RMK A01 T00651020  RH  055%=      5-min Rain = 0
KHA2 140335Z 02005KT 06/M02 A2995 RMK A01 T00631019  RH  055%=      5-min Rain = 0
KHA2 140336Z 00005KT 06/M02 A2996 RMK A01 T00601021  RH  056%=      5-min Rain = 0
KHA2 140337Z 00005KT 06/M02 A2996 RMK A01 T00581022  RH  056%=      5-min Rain = 0
KHA2 140338Z 01004KT 06/M02 A2996 RMK A01 T00571022  RH  056%=      5-min Rain = 0
KHA2 140339Z 01004KT 06/M02 A2996 RMK A01 T00551022  RH  057%=      5-min Rain = 0
KHA2 140340Z 35003KT 05/M02 A2996 RMK A01 T00531023  RH  058%=      5-min Rain = 0
KHA2 140341Z 35004KT 05/M02 A2996 RMK A01 T00511024  RH  058%=      5-min Rain = 0
KHA2 140342Z 00004KT 05/M02 A2996 RMK A01 T00511024  RH  058%=      5-min Rain = 0
KHA2 140343Z 01005KT 05/M02 A2996 RMK A01 T00541024  RH  057%=      5-min Rain = 0
KHA2 140344Z 01005KT 06/M02 A2996 RMK A01 T00561024  RH  056%=      5-min Rain = 0
KHA2 140345Z 00005KT 06/M03 A2996 RMK A01 T00571025  RH  056%=      5-min Rain = 0
KHA2 140346Z 00005KT 06/M03 A2996 RMK A01 T00581025  RH  055%=      5-min Rain = 0
KHA2 140347Z 01005KT 06/M03 A2996 RMK A01 T00581025  RH  056%=      5-min Rain = 0
KHA2 140348Z 01005KT 06/M02 A2996 RMK A01 T00571024  RH  056%=      5-min Rain = 0
KHA2 140349Z 00005KT 06/M02 A2996 RMK A01 T00571024  RH  056%=      5-min Rain = 0
KHA2 140350Z 00005KT 06/M02 A2996 RMK A01 T00561023  RH  057%=      5-min Rain = 0
KHA2 140351Z 01005KT 06/M02 A2996 RMK A01 T00551023  RH  057%=      5-min Rain = 0
KHA2 140352Z 01004KT 05/M02 A2996 RMK A01 T00531022  RH  058%=      5-min Rain = 0
KHA2 140353Z 02005KT 05/M02 A2996 RMK A01 T00521023  RH  058%=      5-min Rain = 0
KHA2 140354Z 01005KT 05/M02 A2996 RMK A01 T00521024  RH  058%=      5-min Rain = 0
KHA2 140355Z 00004KT 05/M02 A2996 RMK A01 T00521024  RH  058%=      5-min Rain = 0
KHA2 140356Z 36004KT 05/M02 A2996 RMK A01 T00521024  RH  058%=      5-min Rain = 0
KHA2 140357Z 35005KT 05/M02 A2996 RMK A01 T00501023  RH  059%=      5-min Rain = 0
KHA2 140358Z 35005KT 05/M02 A2996 RMK A01 T00481024  RH  060%=      5-min Rain = 0
KHA2 140359Z 35004KT 05/M02 A2996 RMK A01 T00501024  RH  059%=      5-min Rain = 0
KHA2 140400Z 00004KT 05/M02 A2996 RMK A01 T00541024  RH  057%=      5-min Rain = 0
KHA2 140401Z 00004KT 06/M02 A2996 RMK A01 T00551023  RH  057%=      5-min Rain = 0
KHA2 140402Z 01003KT 06/M02 A2996 RMK A01 T00561023  RH  057%=      5-min Rain = 0
KHA2 140403Z 01003KT 06/M02 A2996 RMK A01 T00571023  RH  056%=      5-min Rain = 0
KHA2 140404Z 01003KT 06/M02 A2996 RMK A01 T00581023  RH  056%=      5-min Rain = 0
KHA2 140405Z 01003KT 06/M02 A2996 RMK A01 T00591023  RH  055%=      5-min Rain = 0
KHA2 140406Z 36003KT 06/M02 A2995 RMK A01 T00601024  RH  055%=      5-min Rain = 0
KHA2 140407Z 32004KT 06/M02 A2995 RMK A01 T00611024  RH  054%=      5-min Rain = 0
KHA2 140408Z 32006KT 06/M03 A2995 RMK A01 T00611025  RH  054%=      5-min Rain = 0
KHA2 140409Z 33005KT 06/M03 A2995 RMK A01 T00561026  RH  055%=      5-min Rain = 0
KHA2 140410Z 34004KT 05/M03 A2995 RMK A01 T00531025  RH  057%=      5-min Rain = 0
KHA2 140411Z 00004KT 05/M03 A2995 RMK A01 T00511025  RH  058%=      5-min Rain = 0
KHA2 140412Z 02004KT 05/M03 A2995 RMK A01 T00511025  RH  058%=      5-min Rain = 0
KHA2 140413Z 02004KT 05/M03 A2995 RMK A01 T00511026  RH  058%=      5-min Rain = 0
KHA2 140414Z 03005KT 05/M03 A2995 RMK A01 T00541025  RH  057%=      5-min Rain = 0
KHA2 140415Z 03005KT 06/M02 A2995 RMK A01 T00561024  RH  056%=      5-min Rain = 0
KHA2 140416Z 03004KT 06/M02 A2995 RMK A01 T00581024  RH  056%=      5-min Rain = 0
KHA2 140417Z 02006KT 06/M02 A2995 RMK A01 T00591024  RH  055%=      5-min Rain = 0
KHA2 140418Z 02006KT 06/M02 A2995 RMK A01 T00581024  RH  055%=      5-min Rain = 0
KHA2 140419Z 02006KT 06/M03 A2995 RMK A01 T00551025  RH  056%=      5-min Rain = 0
KHA2 140420Z 02006KT 05/M03 A2995 RMK A01 T00531026  RH  057%=      5-min Rain = 0
KHA2 140421Z 02007KT 05/M03 A2995 RMK A01 T00511026  RH  057%=      5-min Rain = 0
KHA2 140422Z 03007KT 05/M03 A2995 RMK A01 T00501027  RH  058%=      5-min Rain = 0
KHA2 140423Z 03007KT 05/M03 A2995 RMK A01 T00481026  RH  058%=      5-min Rain = 0
KHA2 140424Z 03007KT 05/M03 A2995 RMK A01 T00471025  RH  059%=      5-min Rain = 0
KHA2 140425Z 03007KT 05/M02 A2995 RMK A01 T00471024  RH  060%=      5-min Rain = 0
KHA2 140426Z 03007KT 05/M02 A2995 RMK A01 T00471022  RH  061%=      5-min Rain = 0
KHA2 140427Z 03007KT 05/M02 A2995 RMK A01 T00461022  RH  062%=      5-min Rain = 0
KHA2 140428Z 03007KT 05/M02 A2995 RMK A01 T00451020  RH  062%=      5-min Rain = 0
KHA2 140429Z 03006KT 04/M02 A2995 RMK A01 T00441020  RH  063%=      5-min Rain = 0
KHA2 140430Z 04007KT 04/M02 A2995 RMK A01 T00441020  RH  063%=      5-min Rain = 0
KHA2 140431Z 04007KT 04/M02 A2995 RMK A01 T00431018  RH  064%=      5-min Rain = 0
KHA2 140432Z 04007KT 04/M02 A2995 RMK A01 T00431016  RH  065%=      5-min Rain = 0
KHA2 140433Z 03006KT 04/M01 A2995 RMK A01 T00431013  RH  067%=      5-min Rain = 0
KHA2 140434Z 03007KT 04/M01 A2995 RMK A01 T00431011  RH  068%=      5-min Rain = 0
KHA2 140435Z 03007KT 04/M01 A2995 RMK A01 T00431009  RH  069%=      5-min Rain = 0
KHA2 140436Z 03007KT 04/M01 A2995 RMK A01 T00421009  RH  069%=      5-min Rain = 0
KHA2 140437Z 03007KT 04/M01 A2995 RMK A01 T00421009  RH  069%=      5-min Rain = 0
KHA2 140438Z 03007KT 04/M01 A2995 RMK A01 T00411011  RH  069%=      5-min Rain = 0
KHA2 140439Z 03007KT 04/M01 A2995 RMK A01 T00411011  RH  069%=      5-min Rain = 0
KHA2 140440Z 03007KT 04/M01 A2995 RMK A01 T00401011  RH  069%=      5-min Rain = 0
KHA2 140441Z 03007KT 04/M01 A2995 RMK A01 T00401011  RH  069%=      5-min Rain = 0
KHA2 140442Z 03007KT 04/M01 A2995 RMK A01 T00401013  RH  069%=      5-min Rain = 0
KHA2 140443Z 03008KT 04/M02 A2995 RMK A01 T00411015  RH  067%=      5-min Rain = 0
KHA2 140444Z 03007KT 04/M02 A2995 RMK A01 T00421016  RH  066%=      5-min Rain = 0
KHA2 140445Z 03007KT 04/M02 A2995 RMK A01 T00421017  RH  065%=      5-min Rain = 0
KHA2 140446Z 03007KT 04/M02 A2995 RMK A01 T00421017  RH  065%=      5-min Rain = 0
KHA2 140447Z 03008KT 04/M02 A2995 RMK A01 T00421017  RH  065%=      5-min Rain = 0
KHA2 140448Z 03008KT 04/M02 A2995 RMK A01 T00421016  RH  066%=      5-min Rain = 0
KHA2 140449Z 03009KT 04/M02 A2995 RMK A01 T00411017  RH  066%=      5-min Rain = 0
KHA2 140450Z 03009KT 04/M02 A2995 RMK A01 T00411017  RH  066%=      5-min Rain = 0
KHA2 140451Z 03008KT 04/M02 A2995 RMK A01 T00401018  RH  066%=      5-min Rain = 0
KHA2 140452Z 02008KT 04/M02 A2995 RMK A01 T00401020  RH  065%=      5-min Rain = 0
KHA2 140453Z 02009KT 04/M02 A2995 RMK A01 T00391022  RH  064%=      5-min Rain = 0
KHA2 140454Z 02009KT 04/M02 A2996 RMK A01 T00411022  RH  064%=      5-min Rain = 0
KHA2 140455Z 02009KT 04/M02 A2996 RMK A01 T00431021  RH  063%=      5-min Rain = 0
KHA2 140456Z 02009KT 04/M02 A2996 RMK A01 T00441021  RH  063%=      5-min Rain = 0
KHA2 140457Z 01009KT 04/M02 A2996 RMK A01 T00441021  RH  062%=      5-min Rain = 0
KHA2 140458Z 01009KT 04/M02 A2996 RMK A01 T00441022  RH  062%=      5-min Rain = 0
KHA2 140459Z 01009KT 04/M02 A2997 RMK A01 T00441022  RH  062%=      5-min Rain = 0
KHA2 140500Z 01008KT 05/M02 A2997 RMK A01 T00461021  RH  062%=      5-min Rain = 0
KHA2 140501Z 01008KT 05/M02 A2997 RMK A01 T00471021  RH  061%=      5-min Rain = 0
KHA2 140502Z 01008KT 05/M02 A2997 RMK A01 T00481021  RH  061%=      5-min Rain = 0
KHA2 140503Z 02008KT 05/M02 A2997 RMK A01 T00461022  RH  061%=      5-min Rain = 0
KHA2 140504Z 02008KT 05/M02 A2997 RMK A01 T00451022  RH  062%=      5-min Rain = 0
KHA2 140505Z 02008KT 05/M02 A2997 RMK A01 T00461021  RH  062%=      5-min Rain = 0
KHA2 140506Z 02008KT 05/M02 A2996 RMK A01 T00501020  RH  061%=      5-min Rain = 0
KHA2 140507Z 02008KT 05/M02 A2996 RMK A01 T00541019  RH  059%=      5-min Rain = 0
KHA2 140508Z 02008KT 06/M02 A2996 RMK A01 T00551018  RH  059%=      5-min Rain = 0
KHA2 140509Z 02008KT 06/M02 A2996 RMK A01 T00561018  RH  059%=      5-min Rain = 0
KHA2 140510Z 02008KT 06/M02 A2996 RMK A01 T00561019  RH  059%=      5-min Rain = 0
KHA2 140511Z 02008KT 06/M02 A2996 RMK A01 T00561019  RH  059%=      5-min Rain = 0
KHA2 140512Z 02009KT 06/M02 A2997 RMK A01 T00551020  RH  059%=      5-min Rain = 0
KHA2 140513Z 02009KT 06/M02 A2997 RMK A01 T00551020  RH  058%=      5-min Rain = 0
KHA2 140514Z 02008KT 05/M02 A2996 RMK A01 T00541021  RH  058%=      5-min Rain = 0
KHA2 140515Z 02008KT 06/M02 A2996 RMK A01 T00551020  RH  059%=      5-min Rain = 0
KHA2 140516Z 02008KT 06/M02 A2996 RMK A01 T00551020  RH  058%=      5-min Rain = 0
KHA2 140517Z 02008KT 06/M02 A2996 RMK A01 T00561019  RH  058%=      5-min Rain = 0
KHA2 140518Z 02009KT 06/M02 A2996 RMK A01 T00551019  RH  059%=      5-min Rain = 0
KHA2 140519Z 03008KT 06/M02 A2996 RMK A01 T00561019  RH  059%=      5-min Rain = 0
KHA2 140520Z 03008KT 06/M02 A2996 RMK A01 T00561019  RH  059%=      5-min Rain = 0
KHA2 140521Z 04009KT 06/M02 A2995 RMK A01 T00561020  RH  058%=      5-min Rain = 0
KHA2 140522Z 04008KT 06/M02 A2995 RMK A01 T00571019  RH  058%=      5-min Rain = 0
KHA2 140523Z 04008KT 06/M02 A2995 RMK A01 T00571018  RH  058%=      5-min Rain = 0
KHA2 140524Z 04008KT 06/M02 A2995 RMK A01 T00551018  RH  059%=      5-min Rain = 0
KHA2 140525Z 03008KT 05/M02 A2995 RMK A01 T00541017  RH  060%=      5-min Rain = 0
KHA2 140526Z 02008KT 05/M02 A2995 RMK A01 T00521016  RH  061%=      5-min Rain = 0
KHA2 140527Z 03008KT 05/M02 A2995 RMK A01 T00511016  RH  062%=      5-min Rain = 0
KHA2 140528Z 04007KT 05/M02 A2995 RMK A01 T00501016  RH  062%=      5-min Rain = 0
KHA2 140529Z 04007KT 05/M02 A2995 RMK A01 T00501016  RH  062%=      5-min Rain = 0
KHA2 140530Z 03008KT 05/M02 A2995 RMK A01 T00501015  RH  063%=      5-min Rain = 0
KHA2 140531Z 04008KT 05/M02 A2995 RMK A01 T00511015  RH  062%=      5-min Rain = 0
KHA2 140532Z 04007KT 05/M02 A2995 RMK A01 T00511015  RH  062%=      5-min Rain = 0
KHA2 140533Z 03007KT 05/M02 A2995 RMK A01 T00511015  RH  062%=      5-min Rain = 0
KHA2 140534Z 03006KT 05/M02 A2995 RMK A01 T00521015  RH  062%=      5-min Rain = 0
KHA2 140535Z 03006KT 05/M02 A2995 RMK A01 T00521015  RH  062%=      5-min Rain = 0
KHA2 140536Z 03006KT 05/M02 A2995 RMK A01 T00521015  RH  062%=      5-min Rain = 0
KHA2 140537Z 01006KT 05/M02 A2995 RMK A01 T00521015  RH  062%=      5-min Rain = 0
KHA2 140538Z 01007KT 05/M02 A2996 RMK A01 T00501016  RH  062%=      5-min Rain = 0
KHA2 140539Z 01007KT 05/M02 A2996 RMK A01 T00501017  RH  062%=      5-min Rain = 0
KHA2 140540Z 03007KT 05/M02 A2996 RMK A01 T00511018  RH  061%=      5-min Rain = 0
KHA2 140541Z 04006KT 05/M02 A2996 RMK A01 T00531018  RH  060%=      5-min Rain = 0
KHA2 140542Z 04006KT 06/M02 A2996 RMK A01 T00561017  RH  059%=      5-min Rain = 0
KHA2 140543Z 04006KT 06/M02 A2996 RMK A01 T00571017  RH  059%=      5-min Rain = 0
KHA2 140544Z 02005KT 06/M02 A2996 RMK A01 T00571016  RH  060%=      5-min Rain = 0
KHA2 140545Z 01005KT 06/M02 A2996 RMK A01 T00561016  RH  060%=      5-min Rain = 0
KHA2 140546Z 02005KT 06/M02 A2995 RMK A01 T00551017  RH  060%=      5-min Rain = 0
KHA2 140547Z 02005KT 05/M02 A2995 RMK A01 T00531017  RH  060%=      5-min Rain = 0
KHA2 140548Z 02004KT 05/M02 A2995 RMK A01 T00521018  RH  060%=      5-min Rain = 0
KHA2 140549Z 02004KT 05/M02 A2995 RMK A01 T00521018  RH  061%=      5-min Rain = 0
KHA2 140550Z 02004KT 05/M02 A2995 RMK A01 T00521018  RH  061%=      5-min Rain = 0
KHA2 140551Z 02005KT 05/M02 A2995 RMK A01 T00511018  RH  061%=      5-min Rain = 0
KHA2 140552Z 02005KT 05/M02 A2995 RMK A01 T00511017  RH  061%=      5-min Rain = 0
KHA2 140553Z 01005KT 05/M02 A2995 RMK A01 T00511017  RH  061%=      5-min Rain = 0
KHA2 140554Z 01006KT 05/M02 A2995 RMK A01 T00511017  RH  061%=      5-min Rain = 0
KHA2 140555Z 02005KT 05/M02 A2995 RMK A01 T00511017  RH  061%=      5-min Rain = 0
KHA2 140556Z 01006KT 05/M02 A2995 RMK A01 T00511017  RH  061%=      5-min Rain = 0
KHA2 140557Z 01006KT 05/M02 A2995 RMK A01 T00511017  RH  061%=      5-min Rain = 0
KHA2 140558Z 01006KT 05/M02 A2995 RMK A01 T00511017  RH  061%=      5-min Rain = 0
KHA2 140559Z 01006KT 05/M02 A2995 RMK A01 T00511017  RH  061%=      5-min Rain = 0

Page generated in 0.1238 seconds.